SondeTracker

Meteorological Radiosondes Database

Operations

Sounding was ended - last measurement: 2022-12-07 09:26:38z

MAP
About Radiosonde

Number: U2750205

Launch Site: Eskmeals (GB)

Type: RS41

AUX: NO

Frequency: 405.10 MHz

Max Speed: 126 km/h at 24197 m

Average Speed: 51.08 km/h

Max Altitude: 25901 m

Average Ascent Speed: 4.10 m/s

Average Descent Speed: 4.95 m/s

Status: UNKNOWN

Status Changes
Launch Site Type AUX Frequency Status Finder Landing Point Description Changes made by
APRS Statistics

Received Frames: 631

First Frame [UTC]: 2022-12-07 06:17:21z

Last Frame [UTC]: 2022-12-07 09:26:38z

Receivers: F5RZC-11, F5RZC-14, G3HRZ, G4VFL-14, GB3EI-15, GURGE2-15, M0DMP-12, M0NRD, M1CJE-11

Flight Time: 03:09:17 h

Distance From First Measurement: 145.63 km

Nearest City: Crewe (GB) [4.25 km]

Nearest Hunter: G3HRZ [10.53 km]

Ground Altitude: 50 m

Distance from QTH: 0.00 km

APRS Data
Receiver Number Date/Time [UTC] φ λ Course [°] Speed [km/h] Altitude [m] Description
G3HRZU27502052022-12-07 09:26:3853.137-2.446841419111Clb=-2.5m/s t=-1.0C h=95.5% p=-1.0hPa 405.101 MHz Type=RS41-SG ser=U2750205 Radiosonde
G3HRZU27502052022-12-07 09:26:0753.1377-2.4474315813171Clb=-2.1m/s t=0.1C h=86.1% p=-1.0hPa 405.101 MHz Type=RS41 ser=U2750205 Radiosonde
G3HRZU27502052022-12-07 09:25:3553.139-2.447818713242Clb=-2.1m/s t=-273.0C h=-1.0% p=-1.0hPa 405.101 MHz Type=RS41 ser=U2750205 Radiosonde
G3HRZU27502052022-12-07 09:25:0453.1403-2.4479816313316Clb=-2.7m/s t=0.9C h=75.9% p=-1.0hPa 405.101 MHz Type=RS41-SG ser=U2750205 Radiosonde
G3HRZU27502052022-12-07 09:24:3353.1416-2.4485714619395Clb=-2.7m/s t=0.9C h=73.9% p=-1.0hPa 405.101 MHz Type=RS41-SG ser=U2750205 Radiosonde
G3HRZU27502052022-12-07 09:24:0253.1433-2.4501415720476Clb=-2.6m/s t=0.5C h=74.2% p=-1.0hPa 405.101 MHz Type=RS41-SG ser=U2750205 Radiosonde
G3HRZU27502052022-12-07 09:23:3153.1451-2.4517114222560Clb=-2.8m/s t=0.6C h=67.7% p=-1.0hPa 405.101 MHz Type=RS41-SG ser=U2750205 Radiosonde
G3HRZU27502052022-12-07 09:23:0053.1468-2.4531916424642Clb=-2.6m/s t=0.1C h=68.1% p=-1.0hPa 405.101 MHz Type=RS41-SG ser=U2750205 Radiosonde
G3HRZU27502052022-12-07 09:22:2953.1484-2.4543814715721Clb=-2.4m/s t=-0.5C h=72.4% p=-1.0hPa 405.101 MHz Type=RS41-SG ser=U2750205 Radiosonde
G3HRZU27502052022-12-07 09:21:5853.15-2.4556816624800Clb=-2.7m/s t=-1.1C h=74.5% p=-1.0hPa 405.101 MHz Type=RS41-SG ser=U2750205 Radiosonde
G3HRZU27502052022-12-07 09:21:2753.1515-2.4564615115877Clb=-2.5m/s t=-1.8C h=76.9% p=-1.0hPa 405.101 MHz Type=RS41-SG ser=U2750205 Radiosonde
G3HRZU27502052022-12-07 09:20:5653.153-2.457316526955Clb=-2.6m/s t=-2.4C h=77.7% p=-1.0hPa 405.101 MHz Type=RS41-SG ser=U2750205 Radiosonde
G3HRZU27502052022-12-07 09:20:2553.1546-2.45779183151031Clb=-2.4m/s t=-3.1C h=81.3% p=-1.0hPa 405.101 MHz Type=RS41-SG ser=U2750205 Radiosonde
G3HRZU27502052022-12-07 09:19:5453.1561-2.45854148201105Clb=-2.2m/s t=-3.7C h=82.6% p=-1.0hPa 405.101 MHz Type=RS41-SG ser=U2750205 Radiosonde
G3HRZU27502052022-12-07 09:19:2353.1579-2.45956163301176Clb=-2.4m/s t=-4.3C h=81.5% p=-1.0hPa 405.101 MHz Type=RS41-SG ser=U2750205 Radiosonde
G3HRZU27502052022-12-07 09:18:5253.1599-2.4601181201247Clb=-2.4m/s t=-5.0C h=82.6% p=-1.0hPa 405.101 MHz Type=RS41-SG ser=U2750205 Radiosonde
G3HRZU27502052022-12-07 09:18:2153.1615-2.46079149191320Clb=-2.0m/s t=-5.4C h=81.7% p=-1.0hPa 405.101 MHz Type=RS41-SG ser=U2750205 Radiosonde
G3HRZU27502052022-12-07 09:17:5053.1632-2.46168159281388Clb=-2.4m/s t=-5.9C h=82.8% p=-1.0hPa 405.101 MHz Type=RS41-SG ser=U2750205 Radiosonde
G3HRZU27502052022-12-07 09:17:1953.1649-2.46222176171458Clb=-2.6m/s t=-6.5C h=84.9% p=-1.0hPa 405.101 MHz Type=RS41-SG ser=U2750205 Radiosonde
G3HRZU27502052022-12-07 09:16:4853.1665-2.46293147191528Clb=-2.4m/s t=-7.1C h=87.1% p=-1.0hPa 405.101 MHz Type=RS41-SG ser=U2750205 Radiosonde
G3HRZU27502052022-12-07 09:16:1653.1679-2.46406142261598Clb=-2.8m/s t=-7.4C h=82.4% p=-1.0hPa 405.101 MHz Type=RS41-SG ser=U2750205 Radiosonde
G3HRZU27502052022-12-07 09:15:4653.1695-2.46572154281675Clb=-2.8m/s t=-7.9C h=84.5% p=-1.0hPa 405.101 MHz Type=RS41-SG ser=U2750205 Radiosonde
G3HRZU27502052022-12-07 09:15:1453.171-2.46732160221761Clb=-3.0m/s t=-8.4C h=84.0% p=-1.0hPa 405.101 MHz Type=RS41-SG ser=U2750205 Radiosonde
G3HRZU27502052022-12-07 09:14:4353.1728-2.46895169241851Clb=-3.2m/s t=-8.7C h=77.7% p=-1.0hPa 405.101 MHz Type=RS41-SG ser=U2750205 Radiosonde
G3HRZU27502052022-12-07 09:14:1253.1746-2.46964176171940Clb=-2.9m/s t=-9.3C h=75.7% p=-1.0hPa 405.101 MHz Type=RS41-SG ser=U2750205 Radiosonde
G3HRZU27502052022-12-07 09:13:4153.1763-2.47066148242027Clb=-2.8m/s t=-9.3C h=63.3% p=-1.0hPa 405.101 MHz Type=RS41-SG ser=U2750205 Radiosonde
G3HRZU27502052022-12-07 09:13:1053.1781-2.47145175202112Clb=-2.7m/s t=-8.7C h=44.6% p=-1.0hPa 405.101 MHz Type=RS41-SG ser=U2750205 Radiosonde
G3HRZU27502052022-12-07 09:12:3953.1794-2.47136193112192Clb=-2.6m/s t=-7.1C h=18.9% p=-1.0hPa 405.101 MHz Type=RS41-SG ser=U2750205 Radiosonde
G3HRZU27502052022-12-07 09:12:0853.1804-2.47174174202272Clb=-2.4m/s t=-7.5C h=16.7% p=-1.0hPa 405.101 MHz Type=RS41-SG ser=U2750205 Radiosonde
G3HRZU27502052022-12-07 09:11:3753.1818-2.47225165262345Clb=-2.6m/s t=-7.8C h=15.4% p=-1.0hPa 405.101 MHz Type=RS41-SG ser=U2750205 Radiosonde
G3HRZU27502052022-12-07 09:11:0653.1839-2.47249166222424Clb=-2.8m/s t=-7.9C h=23.2% p=-1.0hPa 405.101 MHz Type=RS41-SG ser=U2750205 Radiosonde
G3HRZU27502052022-12-07 09:10:3553.1861-2.4727165282504Clb=-2.5m/s t=-8.5C h=26.6% p=-1.0hPa 405.101 MHz Type=RS41-SG ser=U2750205 Radiosonde
G3HRZU27502052022-12-07 09:10:0453.1882-2.47318159302584Clb=-2.7m/s t=-8.8C h=29.5% p=-1.0hPa 405.101 MHz Type=RS41-SG ser=U2750205 Radiosonde
G3HRZU27502052022-12-07 09:09:3353.1907-2.47429170392665Clb=-2.7m/s t=-8.7C h=30.8% p=-1.0hPa 405.101 MHz Type=RS41-SG ser=U2750205 Radiosonde
G3HRZU27502052022-12-07 09:09:0253.1935-2.47494181332748Clb=-2.3m/s t=-9.2C h=33.7% p=-1.0hPa 405.101 MHz Type=RS41-SG ser=U2750205 Radiosonde
G3HRZU27502052022-12-07 09:08:3153.1962-2.47514183262829Clb=-2.6m/s t=-9.8C h=38.2% p=-1.0hPa 405.101 MHz Type=RS41-SG ser=U2750205 Radiosonde
G3HRZU27502052022-12-07 09:08:0053.1985-2.47519176202911Clb=-2.6m/s t=-10.2C h=38.9% p=-1.0hPa 405.101 MHz Type=RS41-SG ser=U2750205 Radiosonde
G3HRZU27502052022-12-07 09:07:2953.2003-2.47592154202996Clb=-2.9m/s t=-10.2C h=35.7% p=-1.0hPa 405.101 MHz Type=RS41-SG ser=U2750205 Radiosonde
G3HRZU27502052022-12-07 09:06:5853.2023-2.47768168333085Clb=-2.9m/s t=-9.8C h=29.6% p=-1.0hPa 405.101 MHz Type=RS41-SG ser=U2750205 Radiosonde
G3HRZU27502052022-12-07 09:06:2653.2043-2.4794166263172Clb=-2.8m/s t=-9.8C h=26.1% p=-1.0hPa 405.101 MHz Type=RS41-SG ser=U2750205 Radiosonde
G3HRZU27502052022-12-07 09:05:5653.2063-2.48111151223263Clb=-3.0m/s t=-10.3C h=25.1% p=-1.0hPa 405.101 MHz Type=RS41-SG ser=U2750205 Radiosonde
G3HRZU27502052022-12-07 09:05:2453.2082-2.4832162283358Clb=-2.7m/s t=-10.4C h=22.6% p=-1.0hPa 405.101 MHz Type=RS41-SG ser=U2750205 Radiosonde
G3HRZU27502052022-12-07 09:04:5353.2103-2.48517141283451Clb=-3.2m/s t=-10.9C h=22.9% p=-1.0hPa 405.101 MHz Type=RS41-SG ser=U2750205 Radiosonde
G3HRZU27502052022-12-07 09:04:2253.2125-2.48735140353546Clb=-3.0m/s t=-11.7C h=25.1% p=-1.0hPa 405.101 MHz Type=RS41-SG ser=U2750205 Radiosonde
G3HRZU27502052022-12-07 09:03:5153.2148-2.48977152413642Clb=-3.1m/s t=-12.5C h=25.9% p=-1.0hPa 405.101 MHz Type=RS41-SG ser=U2750205 Radiosonde
G3HRZU27502052022-12-07 09:03:2053.217-2.49248152413741Clb=-3.1m/s t=-13.2C h=26.6% p=-1.0hPa 405.101 MHz Type=RS41-SG ser=U2750205 Radiosonde
G3HRZU27502052022-12-07 09:02:4953.2192-2.49592144463837Clb=-3.1m/s t=-13.6C h=33.6% p=-1.0hPa 405.101 MHz Type=RS41-SG ser=U2750205 Radiosonde
G3HRZU27502052022-12-07 09:02:1853.2216-2.49957138353934Clb=-3.1m/s t=-14.3C h=40.1% p=-1.0hPa 405.101 MHz Type=RS41-SG ser=U2750205 Radiosonde
G3HRZU27502052022-12-07 09:01:4753.224-2.50366126464030Clb=-3.3m/s t=-14.9C h=46.2% p=-1.0hPa 405.101 MHz Type=RS41-SG ser=U2750205 Radiosonde
G3HRZU27502052022-12-07 09:01:1653.2268-2.50817128504128Clb=-3.2m/s t=-15.6C h=58.7% p=-1.0hPa 405.101 MHz Type=RS41-SG ser=U2750205 Radiosonde
G3HRZU27502052022-12-07 09:00:4553.2298-2.51237141564230Clb=-3.0m/s t=-16.5C h=66.3% p=-1.0hPa 405.101 MHz Type=RS41-SG ser=U2750205 Radiosonde
G3HRZU27502052022-12-07 09:00:1453.233-2.51605152464330Clb=-3.1m/s t=-17.4C h=73.6% p=-1.0hPa 405.101 MHz Type=RS41-SG ser=U2750205 Radiosonde
G3HRZU27502052022-12-07 08:59:4353.2358-2.51975146414430Clb=-3.4m/s t=-18.1C h=74.1% p=-1.0hPa 405.101 MHz Type=RS41-SG ser=U2750205 Radiosonde
G3HRZU27502052022-12-07 08:59:1253.2383-2.52374131414532Clb=-3.2m/s t=-18.8C h=75.1% p=-1.0hPa 405.101 MHz Type=RS41-SG ser=U2750205 Radiosonde
G3HRZU27502052022-12-07 08:58:4153.2407-2.52876135444636Clb=-3.5m/s t=-19.3C h=85.2% p=-1.0hPa 405.101 MHz Type=RS41-SG ser=U2750205 Radiosonde
G3HRZU27502052022-12-07 08:58:1053.243-2.53395121444743Clb=-3.1m/s t=-19.9C h=87.8% p=-1.0hPa 405.101 MHz Type=RS41-SG ser=U2750205 Radiosonde
G3HRZU27502052022-12-07 08:57:3953.2453-2.53973119574851Clb=-3.7m/s t=-20.7C h=93.4% p=-1.0hPa 405.101 MHz Type=RS41-SG ser=U2750205 Radiosonde
G3HRZU27502052022-12-07 08:57:0853.248-2.546122654958Clb=-3.4m/s t=-21.3C h=88.4% p=-1.0hPa 405.101 MHz Type=RS41-SG ser=U2750205 Radiosonde
G3HRZU27502052022-12-07 08:56:3753.251-2.55172121575065Clb=-3.1m/s t=-22.1C h=83.8% p=-1.0hPa 405.101 MHz Type=RS41-SG ser=U2750205 Radiosonde
G3HRZU27502052022-12-07 08:56:0653.2542-2.55708132485171Clb=-3.3m/s t=-23.1C h=88.6% p=-1.0hPa 405.101 MHz Type=RS41-SG ser=U2750205 Radiosonde
G3HRZU27502052022-12-07 08:55:3553.2575-2.56167132465268Clb=-3.5m/s t=-24.0C h=87.2% p=-1.0hPa 405.101 MHz Type=RS41-SG ser=U2750205 Radiosonde
G3HRZU27502052022-12-07 08:55:0453.2605-2.56662131505372Clb=-3.1m/s t=-24.4C h=81.5% p=-1.0hPa 405.101 MHz Type=RS41-SG ser=U2750205 Radiosonde
G3HRZU27502052022-12-07 08:54:3353.2638-2.57215130525468Clb=-2.9m/s t=-25.3C h=89.2% p=-1.0hPa 405.101 MHz Type=RS41-SG ser=U2750205 Radiosonde
G3HRZU27502052022-12-07 08:54:0253.267-2.57709129485560Clb=-2.9m/s t=-25.7C h=81.7% p=-1.0hPa 405.101 MHz Type=RS41-SG ser=U2750205 Radiosonde
G3HRZU27502052022-12-07 08:53:3153.2701-2.582131595660Clb=-3.2m/s t=-26.1C h=67.1% p=-1.0hPa 405.101 MHz Type=RS41-SG ser=U2750205 Radiosonde
G3HRZU27502052022-12-07 08:52:5953.273-2.58619139575758Clb=-3.3m/s t=-26.8C h=59.6% p=-1.0hPa 405.101 MHz Type=RS41-SG ser=U2750205 Radiosonde
G3HRZU27502052022-12-07 08:52:2853.2761-2.59023150505861Clb=-3.2m/s t=-27.8C h=61.1% p=-1.0hPa 405.101 MHz Type=RS41-SG ser=U2750205 Radiosonde
G3HRZU27502052022-12-07 08:51:5753.279-2.59419143415965Clb=-3.7m/s t=-28.8C h=64.5% p=-1.0hPa 405.101 MHz Type=RS41-SG ser=U2750205 Radiosonde
G3HRZU27502052022-12-07 08:51:2653.2822-2.59818136526069Clb=-3.8m/s t=-29.4C h=41.8% p=-1.0hPa 405.101 MHz Type=RS41-SG ser=U2750205 Radiosonde
G3HRZU27502052022-12-07 08:50:5553.2856-2.60221146636178Clb=-3.2m/s t=-30.3C h=40.4% p=-1.0hPa 405.101 MHz Type=RS41-SG ser=U2750205 Radiosonde
G3HRZU27502052022-12-07 08:50:2453.2893-2.60583156576287Clb=-3.1m/s t=-31.1C h=38.1% p=-1.0hPa 405.101 MHz Type=RS41-SG ser=U2750205 Radiosonde
G3HRZU27502052022-12-07 08:49:5353.2929-2.60889159576387Clb=-4.5m/s t=-30.9C h=23.4% p=-1.0hPa 405.101 MHz Type=RS41-SG ser=U2750205 Radiosonde
G3HRZU27502052022-12-07 08:49:2253.2967-2.61089154566493Clb=-4.1m/s t=-31.2C h=19.2% p=-1.0hPa 405.101 MHz Type=RS41-SG ser=U2750205 Radiosonde
G3HRZU27502052022-12-07 08:48:5153.3006-2.6126161576602Clb=-3.9m/s t=-32.2C h=19.4% p=-1.0hPa 405.101 MHz Type=RS41-SG ser=U2750205 Radiosonde
G3HRZU27502052022-12-07 08:48:2053.3052-2.61385175466710Clb=-3.6m/s t=-32.8C h=21.7% p=-1.0hPa 405.101 MHz Type=RS41-SG ser=U2750205 Radiosonde
G3HRZU27502052022-12-07 08:47:4953.3097-2.61537175486821Clb=-3.3m/s t=-33.2C h=28.2% p=-1.0hPa 405.101 MHz Type=RS41-SG ser=U2750205 Radiosonde
G3HRZU27502052022-12-07 08:47:1853.3141-2.61669161526934Clb=-3.9m/s t=-34.1C h=28.5% p=-1.0hPa 405.101 MHz Type=RS41-SG ser=U2750205 Radiosonde
G3HRZU27502052022-12-07 08:46:4753.3185-2.61814159527050Clb=-4.0m/s t=-34.8C h=22.4% p=-1.0hPa 405.101 MHz Type=RS41-SG ser=U2750205 Radiosonde
G3HRZU27502052022-12-07 08:46:1653.3226-2.61976157487168Clb=-3.4m/s t=-35.0C h=14.3% p=-1.0hPa 405.101 MHz Type=RS41-SG ser=U2750205 Radiosonde
M0NRDU27502052022-12-07 08:46:0453.3263-2.62046168417275Clb=-3.5m/s t=-35.9C h=15.0% p=-1.0hPa 405.101 MHz Type=RS41-SG Radiosonde
G3HRZU27502052022-12-07 08:45:4553.3267-2.62067161507289Clb=-3.6m/s t=-36.0C h=15.5% p=-1.0hPa 405.101 MHz Type=RS41-SG ser=U2750205 Radiosonde
M0NRDU27502052022-12-07 08:45:3353.3287-2.62098184527346Clb=-4.6m/s t=-36.5C h=-1.0% p=-1.0hPa 405.101 MHz Type=RS41-SG Radiosonde
G3HRZU27502052022-12-07 08:45:1453.3307-2.62098174567413Clb=-4.0m/s t=-37.0C h=18.4% p=-1.0hPa 405.101 MHz Type=RS41-SG ser=U2750205 Radiosonde
M0NRDU27502052022-12-07 08:45:0253.3322-2.62079193487457Clb=-4.1m/s t=-273.0C h=-1.0% p=-1.0hPa 405.101 MHz Type=RS41 Radiosonde
G3HRZU27502052022-12-07 08:44:4353.3348-2.62077187617538Clb=-4.2m/s t=-37.9C h=23.1% p=-1.0hPa 405.101 MHz Type=RS41-SG ser=U2750205 Radiosonde
G3HRZU27502052022-12-07 08:44:1253.3388-2.62027188467668Clb=-3.6m/s t=-39.2C h=26.6% p=-1.0hPa 405.101 MHz Type=RS41-SG ser=U2750205 Radiosonde
G3HRZU27502052022-12-07 08:43:4153.3425-2.62031179397793Clb=-3.6m/s t=-40.2C h=26.0% p=-1.0hPa 405.101 MHz Type=RS41-SG ser=U2750205 Radiosonde
G3HRZU27502052022-12-07 08:43:1053.346-2.62052168377907Clb=-3.1m/s t=-41.3C h=23.9% p=-1.0hPa 405.101 MHz Type=RS41-SG ser=U2750205 Radiosonde
G3HRZU27502052022-12-07 08:42:3953.3494-2.62083172528024Clb=-4.7m/s t=-42.0C h=19.3% p=-1.0hPa 405.101 MHz Type=RS41-SG ser=U2750205 Radiosonde
G3HRZU27502052022-12-07 08:42:0853.3532-2.62105183568145Clb=-2.7m/s t=-42.6C h=15.7% p=-1.0hPa 405.101 MHz Type=RS41-SG ser=U2750205 Radiosonde
G3HRZU27502052022-12-07 08:41:3753.3567-2.62156179378258Clb=-4.0m/s t=-43.0C h=10.6% p=-1.0hPa 405.101 MHz Type=RS41-SG ser=U2750205 Radiosonde
G3HRZU27502052022-12-07 08:41:0553.3599-2.62245172318374Clb=-3.7m/s t=-43.8C h=10.5% p=-1.0hPa 405.101 MHz Type=RS41-SG ser=U2750205 Radiosonde
G3HRZU27502052022-12-07 08:40:3553.3632-2.62361162528490Clb=-3.8m/s t=-43.9C h=10.9% p=-1.0hPa 405.101 MHz Type=RS41-SG ser=U2750205 Radiosonde
G3HRZU27502052022-12-07 08:40:0353.3669-2.6246181508607Clb=-4.1m/s t=-44.9C h=12.1% p=-1.0hPa 405.101 MHz Type=RS41-SG ser=U2750205 Radiosonde
G3HRZU27502052022-12-07 08:39:3253.3702-2.62558157378730Clb=-4.1m/s t=-46.0C h=12.9% p=-1.0hPa 405.101 MHz Type=RS41-SG ser=U2750205 Radiosonde
G3HRZU27502052022-12-07 08:39:0153.3736-2.62743156548853Clb=-3.7m/s t=-46.7C h=14.7% p=-1.0hPa 405.101 MHz Type=RS41-SG ser=U2750205 Radiosonde
G3HRZU27502052022-12-07 08:38:3053.3773-2.62905177528976Clb=-3.9m/s t=-47.8C h=16.6% p=-1.0hPa 405.101 MHz Type=RS41-SG ser=U2750205 Radiosonde
G3HRZU27502052022-12-07 08:37:5953.3809-2.63046157379099Clb=-3.8m/s t=-48.8C h=17.4% p=-1.0hPa 405.101 MHz Type=RS41-SG ser=U2750205 Radiosonde
G3HRZU27502052022-12-07 08:37:2853.3846-2.63253157619222Clb=-4.6m/s t=-49.9C h=18.2% p=-1.0hPa 405.101 MHz Type=RS41-SG ser=U2750205 Radiosonde
G3HRZU27502052022-12-07 08:36:5753.3887-2.63437175579349Clb=-4.3m/s t=-50.8C h=17.6% p=-1.0hPa 405.101 MHz Type=RS41-SG ser=U2750205 Radiosonde
G3HRZU27502052022-12-07 08:36:2653.3928-2.63594167439478Clb=-4.2m/s t=-51.9C h=19.2% p=-1.0hPa 405.101 MHz Type=RS41-SG ser=U2750205 Radiosonde
G3HRZU27502052022-12-07 08:35:5553.3968-2.63799153619608Clb=-5.0m/s t=-53.0C h=20.8% p=-1.0hPa 405.101 MHz Type=RS41-SG ser=U2750205 Radiosonde
G3HRZU27502052022-12-07 08:35:2453.401-2.64002172639748Clb=-5.3m/s t=-54.1C h=22.2% p=-1.0hPa 405.101 MHz Type=RS41-SG ser=U2750205 Radiosonde
G3HRZU27502052022-12-07 08:34:5353.4052-2.6419166469893Clb=-4.6m/s t=-55.1C h=23.3% p=-1.0hPa 405.101 MHz Type=RS41-SG ser=U2750205 Radiosonde
G3HRZU27502052022-12-07 08:34:2253.4096-2.644071606910037Clb=-4.6m/s t=-56.0C h=23.8% p=-1.0hPa 405.101 MHz Type=RS41-SG ser=U2750205 Radiosonde
G3HRZU27502052022-12-07 08:33:5153.4143-2.645441805710180Clb=-4.4m/s t=-57.0C h=24.1% p=-1.0hPa 405.101 MHz Type=RS41-SG ser=U2750205 Radiosonde
G3HRZU27502052022-12-07 08:33:2053.4189-2.647241576110322Clb=-4.5m/s t=-57.8C h=24.3% p=-1.0hPa 405.101 MHz Type=RS41-SG ser=U2750205 Radiosonde
G3HRZU27502052022-12-07 08:32:4953.4245-2.649321718110470Clb=-3.4m/s t=-58.7C h=27.7% p=-1.0hPa 405.101 MHz Type=RS41-SG ser=U2750205 Radiosonde
G3HRZU27502052022-12-07 08:32:1853.4302-2.649851866910598Clb=-4.3m/s t=-59.7C h=29.0% p=-1.0hPa 405.101 MHz Type=RS41-SG ser=U2750205 Radiosonde
G3HRZU27502052022-12-07 08:31:4753.4347-2.650311794810735Clb=-4.5m/s t=-60.4C h=28.1% p=-1.0hPa 405.101 MHz Type=RS41-SG ser=U2750205 Radiosonde
G3HRZU27502052022-12-07 08:31:1653.4391-2.651821815910866Clb=-4.9m/s t=-60.4C h=24.9% p=-1.0hPa 405.101 MHz Type=RS41-SG ser=U2750205 Radiosonde
G3HRZU27502052022-12-07 08:30:4553.4434-2.652731864410999Clb=-5.1m/s t=-60.2C h=20.4% p=-1.0hPa 405.101 MHz Type=RS41-SG ser=U2750205 Radiosonde
G3HRZU27502052022-12-07 08:30:1453.4474-2.653211753511130Clb=-4.4m/s t=-59.5C h=16.7% p=-1.0hPa 405.101 MHz Type=RS41-SG ser=U2750205 Radiosonde
G3HRZU27502052022-12-07 08:29:4353.4503-2.653521532411257Clb=-4.9m/s t=-59.5C h=16.0% p=-1.0hPa 405.101 MHz Type=RS41-SG ser=U2750205 Radiosonde
G3HRZU27502052022-12-07 08:29:1253.4524-2.654861242211401Clb=-4.5m/s t=-60.5C h=17.3% p=-1.0hPa 405.101 MHz Type=RS41-SG ser=U2750205 Radiosonde
G3HRZU27502052022-12-07 08:28:4153.454-2.658491164611546Clb=-4.4m/s t=-60.9C h=14.9% p=-1.0hPa 405.101 MHz Type=RS41-SG ser=U2750205 Radiosonde
G3HRZU27502052022-12-07 08:28:0953.4565-2.66311305911696Clb=-4.8m/s t=-61.8C h=12.2% p=-1.0hPa 405.101 MHz Type=RS41-SG ser=U2750205 Radiosonde
G3HRZU27502052022-12-07 08:27:3853.4602-2.666971424111845Clb=-4.8m/s t=-60.8C h=7.8% p=-1.0hPa 405.101 MHz Type=RS41-SG ser=U2750205 Radiosonde
G3HRZU27502052022-12-07 08:27:0753.4635-2.670981316111992Clb=-5.0m/s t=-59.1C h=5.9% p=-1.0hPa 405.101 MHz Type=RS41-SG ser=U2750205 Radiosonde
G3HRZU27502052022-12-07 08:26:3653.4667-2.674761305912140Clb=-4.8m/s t=-58.2C h=4.8% p=-1.0hPa 405.101 MHz Type=RS41-SG ser=U2750205 Radiosonde
G3HRZU27502052022-12-07 08:26:0553.4703-2.679431536912295Clb=-5.1m/s t=-58.7C h=4.8% p=-1.0hPa 405.101 MHz Type=RS41-SG ser=U2750205 Radiosonde
G3HRZU27502052022-12-07 08:25:3453.4743-2.684071585612450Clb=-5.4m/s t=-59.3C h=4.5% p=-1.0hPa 405.101 MHz Type=RS41-SG ser=U2750205 Radiosonde
G3HRZU27502052022-12-07 08:25:0353.4791-2.688991618112609Clb=-4.8m/s t=-59.4C h=3.8% p=-1.0hPa 405.101 MHz Type=RS41-SG ser=U2750205 Radiosonde
G3HRZU27502052022-12-07 08:24:3253.4843-2.691621746912767Clb=-5.2m/s t=-58.7C h=3.3% p=-1.0hPa 405.101 MHz Type=RS41-SG ser=U2750205 Radiosonde
G3HRZU27502052022-12-07 08:24:0153.4886-2.693581523912927Clb=-5.1m/s t=-58.0C h=3.0% p=-1.0hPa 405.101 MHz Type=RS41-SG ser=U2750205 Radiosonde
G3HRZU27502052022-12-07 08:23:3053.4924-2.696031556513096Clb=-5.3m/s t=-58.0C h=2.9% p=-1.0hPa 405.101 MHz Type=RS41-SG ser=U2750205 Radiosonde
G3HRZU27502052022-12-07 08:22:5953.4956-2.698361734313263Clb=-5.1m/s t=-58.4C h=2.8% p=-1.0hPa 405.101 MHz Type=RS41-SG ser=U2750205 Radiosonde
G3HRZU27502052022-12-07 08:22:2853.499-2.701311413913437Clb=-5.7m/s t=-59.0C h=2.7% p=-1.0hPa 405.101 MHz Type=RS41-SG ser=U2750205 Radiosonde
G3HRZU27502052022-12-07 08:21:5753.5028-2.705011346113617Clb=-6.0m/s t=-59.3C h=2.5% p=-1.0hPa 405.101 MHz Type=RS41-SG ser=U2750205 Radiosonde
G3HRZU27502052022-12-07 08:21:2653.5068-2.708311647013803Clb=-5.3m/s t=-58.7C h=2.3% p=-1.0hPa 405.101 MHz Type=RS41-SG ser=U2750205 Radiosonde
G3HRZU27502052022-12-07 08:20:5553.5109-2.709821803313987Clb=-6.0m/s t=-57.0C h=2.1% p=-1.0hPa 405.101 MHz Type=RS41-SG ser=U2750205 Radiosonde
G3HRZU27502052022-12-07 08:20:2453.5132-2.711881173714171Clb=-5.9m/s t=-56.5C h=2.1% p=-1.0hPa 405.101 MHz Type=RS41-SG ser=U2750205 Radiosonde
G3HRZU27502052022-12-07 08:19:5353.516-2.715341476514351Clb=-5.8m/s t=-56.4C h=2.1% p=-1.0hPa 405.101 MHz Type=RS41-SG ser=U2750205 Radiosonde
G3HRZU27502052022-12-07 08:19:2253.5193-2.717851794814532Clb=-6.1m/s t=-57.3C h=2.0% p=-1.0hPa 405.101 MHz Type=RS41-SG ser=U2750205 Radiosonde
F5RZC-11U27502052022-12-07 08:19:0853.5214-2.719011894314671Clb=-6.4m/s t=-57.7C h=2.2% p=-1.0hPa 405.100 MHz Type=RS41-SG ser=U2750205 Radiosonde
G3HRZU27502052022-12-07 08:18:5053.5219-2.718941221714721Clb=-6.4m/s t=-57.7C h=2.2% p=-1.0hPa 405.101 MHz Type=RS41-SG ser=U2750205 Radiosonde
F5RZC-11U27502052022-12-07 08:18:3753.523-2.720061893514807Clb=-6.6m/s t=-57.9C h=2.2% p=-1.0hPa 405.100 MHz Type=RS41-SG ser=U2750205 Radiosonde
F5RZC-14U27502052022-12-07 08:18:2753.5233-2.720181044314865Clb=-6.0m/s t=-57.9C h=5.3% 405.10MHz Type=RS41-SG Details on http://radiosondy.info
G3HRZU27502052022-12-07 08:18:1953.5238-2.721341395214918Clb=-6.7m/s t=-58.1C h=2.0% p=-1.0hPa 405.101 MHz Type=RS41-SG ser=U2750205 Radiosonde
F5RZC-14U27502052022-12-07 08:18:1153.5245-2.72181801514968Clb=-6.4m/s t=-58.5C h=5.5% 405.10MHz Type=RS41-SG TxOff=8h12m batt=2.4V Details on http://radiosondy.info
F5RZC-11U27502052022-12-07 08:18:0653.5247-2.72208942615007Clb=-6.5m/s t=-58.7C h=2.2% p=-1.0hPa 405.100 MHz Type=RS41-SG ser=U2750205 Radiosonde
G3HRZU27502052022-12-07 08:17:4853.5259-2.724051722015120Clb=-6.6m/s t=-59.4C h=2.3% p=-1.0hPa 405.101 MHz Type=RS41-SG ser=U2750205 Radiosonde
F5RZC-11U27502052022-12-07 08:17:3553.5271-2.726141674615242Clb=-7.8m/s t=-59.3C h=2.0% p=-1.0hPa 405.100 MHz Type=RS41-SG ser=U2750205 Radiosonde
G3HRZU27502052022-12-07 08:17:1753.5277-2.726841093915334Clb=-7.0m/s t=-59.2C h=2.1% p=-1.0hPa 405.101 MHz Type=RS41-SG ser=U2750205 Radiosonde
G3HRZU27502052022-12-07 08:16:4653.5306-2.730581695715557Clb=-7.1m/s t=-57.9C h=1.9% p=-1.0hPa 405.101 MHz Type=RS41-SG ser=U2750205 Radiosonde
F5RZC-11U27502052022-12-07 08:16:3253.5327-2.731821825415717Clb=-6.9m/s t=-57.7C h=1.8% p=-1.0hPa 405.100 MHz Type=RS41-SG ser=U2750205 Radiosonde
G3HRZU27502052022-12-07 08:16:1553.5335-2.731361981115778Clb=-7.0m/s t=-57.9C h=2.1% p=-1.0hPa 405.101 MHz Type=RS41-SG ser=U2750205 Radiosonde
F5RZC-11U27502052022-12-07 08:16:0153.5343-2.732341715415870Clb=-7.1m/s t=-57.8C h=1.8% p=-1.0hPa 405.100 MHz Type=RS41-SG ser=U2750205 Radiosonde
G3HRZU27502052022-12-07 08:15:4453.5352-2.732731254315988Clb=-6.6m/s t=-57.6C h=1.8% p=-1.0hPa 405.101 MHz Type=RS41-SG ser=U2750205 Radiosonde
F5RZC-11U27502052022-12-07 08:15:3053.5364-2.73318207616082Clb=-6.9m/s t=-58.1C h=1.9% p=-1.0hPa 405.100 MHz Type=RS41-SG ser=U2750205 Radiosonde
F5RZC-14U27502052022-12-07 08:15:2053.5365-2.734141143316153Clb=-6.7m/s t=-58.5C h=5.1% 405.10MHz Type=RS41-SG Details on http://radiosondy.info
G3HRZU27502052022-12-07 08:15:1353.5371-2.735161584416202Clb=-6.4m/s t=-58.5C h=1.8% p=-1.0hPa 405.101 MHz Type=RS41-SG ser=U2750205 Radiosonde
F5RZC-14U27502052022-12-07 08:15:0553.5375-2.73545905016255Clb=-6.8m/s t=-58.7C h=5.1% 405.10MHz Type=RS41-SG Details on http://radiosondy.info
F5RZC-11U27502052022-12-07 08:14:5953.5375-2.736381025216296Clb=-6.8m/s t=-59.1C h=1.9% p=-1.0hPa 405.100 MHz Type=RS41-SG ser=U2750205 Radiosonde
F5RZC-14U27502052022-12-07 08:14:5053.5384-2.738161524116360Clb=-7.3m/s t=-59.1C h=5.2% 405.10MHz Type=RS41-SG batt=2.5V Details on http://radiosondy.info
G3HRZU27502052022-12-07 08:14:4253.5391-2.73861242016417Clb=-7.0m/s t=-59.1C h=2.0% p=-1.0hPa 405.101 MHz Type=RS41-SG ser=U2750205 Radiosonde
F5RZC-14U27502052022-12-07 08:14:3553.5394-2.739761284316465Clb=-7.0m/s t=-58.6C h=5.4% 405.10MHz Type=RS41-SG Details on http://radiosondy.info
F5RZC-11U27502052022-12-07 08:14:2853.5404-2.740811666116515Clb=-7.0m/s t=-58.2C h=1.8% p=-1.0hPa 405.100 MHz Type=RS41-SG ser=U2750205 Radiosonde
G3HRZU27502052022-12-07 08:14:1153.5417-2.742041385916644Clb=-7.4m/s t=-57.8C h=1.7% p=-1.0hPa 405.101 MHz Type=RS41-SG ser=U2750205 Radiosonde
F5RZC-11U27502052022-12-07 08:13:5753.5431-2.742531871516737Clb=-8.0m/s t=-273.0C h=-1.0% p=-1.0hPa 405.100 MHz Type=RS41-SG ser=U2750205 Radiosonde
G3HRZU27502052022-12-07 08:13:4053.5444-2.744231873716870Clb=-7.3m/s t=-58.4C h=1.7% p=-1.0hPa 405.101 MHz Type=RS41-SG ser=U2750205 Radiosonde
F5RZC-11U27502052022-12-07 08:13:2653.5448-2.745291105616967Clb=-8.0m/s t=-273.0C h=-1.0% p=-1.0hPa 405.100 MHz Type=RS41-SG ser=U2750205 Radiosonde
G3HRZU27502052022-12-07 08:13:0953.5459-2.74762874617101Clb=-7.6m/s t=-59.2C h=1.8% p=-1.0hPa 405.101 MHz Type=RS41-SG ser=U2750205 Radiosonde
F5RZC-11U27502052022-12-07 08:12:5553.547-2.750681534417205Clb=-7.5m/s t=-273.0C h=-1.0% p=-1.0hPa 405.100 MHz Type=RS41 ser=U2750205 Radiosonde
G3HRZU27502052022-12-07 08:12:3853.5477-2.75341356917332Clb=-8.0m/s t=-59.5C h=1.9% p=-1.0hPa 405.101 MHz Type=RS41-SG ser=U2750205 Radiosonde
F5RZC-14U27502052022-12-07 08:12:2053.5489-2.755291096317461Clb=-7.0m/s t=-59.2C h=5.2% 405.10MHz Type=RS41-SG Details on http://radiosondy.info
G3HRZU27502052022-12-07 08:12:0753.5506-2.75731793917569Clb=-8.0m/s t=-59.8C h=1.8% p=-1.0hPa 405.101 MHz Type=RS41-SG ser=U2750205 Radiosonde
F5RZC-14U27502052022-12-07 08:12:0553.5507-2.757291823717577Clb=-7.9m/s t=-59.7C h=5.5% 405.10MHz Type=RS41-SG batt=2.4V Details on http://radiosondy.info
F5RZC-14U27502052022-12-07 08:11:5053.5515-2.759151513317695Clb=-7.7m/s t=-59.6C h=5.4% 405.10MHz Type=RS41-SG Details on http://radiosondy.info
G3HRZU27502052022-12-07 08:11:3553.5524-2.7596913117813Clb=-8.2m/s t=-59.7C h=1.8% p=-1.0hPa 405.101 MHz Type=RS41-SG ser=U2750205 Radiosonde
G3HRZU27502052022-12-07 08:11:0453.5545-2.763871526118060Clb=-8.0m/s t=-59.0C h=1.7% p=-1.0hPa 405.101 MHz Type=RS41-SG ser=U2750205 Radiosonde
M1CJE-11U27502052022-12-07 08:11:0053.5561-2.766381665218260Clb=-8.6m/s t=-59.8C h=1.7% p=-1.0hPa 405.102 MHz Type=RS41-SG Radiosonde auto_rx v1.5.0
G3HRZU27502052022-12-07 08:10:3353.5566-2.76642124718318Clb=-8.5m/s t=-60.0C h=1.9% p=-1.0hPa 405.101 MHz Type=RS41-SG ser=U2750205 Radiosonde
M1CJE-11U27502052022-12-07 08:10:3053.5574-2.768661575918437Clb=-8.4m/s t=-59.8C h=1.7% p=-1.0hPa 405.102 MHz Type=RS41-SG Radiosonde auto_rx v1.5.0
G3HRZU27502052022-12-07 08:10:0253.5583-2.770361187018581Clb=-8.5m/s t=-60.5C h=1.8% p=-1.0hPa 405.101 MHz Type=RS41-SG ser=U2750205 Radiosonde
M1CJE-11U27502052022-12-07 08:10:0053.5592-2.77171626718645Clb=-9.1m/s t=-60.9C h=1.8% p=-1.0hPa 405.102 MHz Type=RS41-SG Radiosonde auto_rx v1.5.0
G3HRZU27502052022-12-07 08:09:3153.5619-2.774681784618855Clb=-8.6m/s t=-60.5C h=1.9% p=-1.0hPa 405.101 MHz Type=RS41-SG ser=U2750205 Radiosonde
F5RZC-14U27502052022-12-07 08:09:2053.5624-2.775951146518955Clb=-9.3m/s t=-59.6C h=5.2% 405.10MHz Type=RS41-SG TxOff=8h21m batt=2.5V Details on http://radiosondy.info
F5RZC-14U27502052022-12-07 08:09:0553.5643-2.778041386519090Clb=-8.9m/s t=-60.1C h=5.4% 405.10MHz Type=RS41-SG Details on http://radiosondy.info
G3HRZU27502052022-12-07 08:09:0053.5644-2.778771085719132Clb=-8.7m/s t=-60.2C h=1.8% p=-1.0hPa 405.101 MHz Type=RS41-SG ser=U2750205 Radiosonde
F5RZC-14U27502052022-12-07 08:08:5053.5658-2.781071614619223Clb=-8.4m/s t=-60.7C h=5.6% 405.10MHz Type=RS41-SG Details on http://radiosondy.info
F5RZC-14U27502052022-12-07 08:08:3553.5669-2.782471137219359Clb=-8.8m/s t=-60.9C h=5.4% 405.10MHz Type=RS41-SG batt=2.5V Details on http://radiosondy.info
M1CJE-11U27502052022-12-07 08:08:3053.5677-2.78381537019413Clb=-9.5m/s t=-61.1C h=1.8% p=-1.0hPa 405.102 MHz Type=RS41-SG Radiosonde auto_rx v1.5.0
G3HRZU27502052022-12-07 08:08:2953.5677-2.78381537019413Clb=-9.5m/s t=-61.1C h=1.8% p=-1.0hPa 405.101 MHz Type=RS41-SG ser=U2750205 Radiosonde
G3HRZU27502052022-12-07 08:07:5853.5705-2.78675911919700Clb=-9.9m/s t=-62.0C h=1.9% p=-1.0hPa 405.101 MHz Type=RS41-SG ser=U2750205 Radiosonde
M1CJE-11U27502052022-12-07 08:07:3053.5725-2.791111177219979Clb=-9.8m/s t=-62.8C h=2.0% p=-1.0hPa 405.102 MHz Type=RS41-SG Radiosonde auto_rx v1.5.0
G3HRZU27502052022-12-07 08:07:2753.5727-2.791651298319999Clb=-10.0m/s t=-62.8C h=2.0% p=-1.0hPa 405.101 MHz Type=RS41-SG ser=U2750205 Radiosonde
M1CJE-11U27502052022-12-07 08:07:0053.5759-2.795191776920279Clb=-10.5m/s t=-62.5C h=1.9% p=-1.0hPa 405.102 MHz Type=RS41-SG Radiosonde auto_rx v1.5.0
G3HRZU27502052022-12-07 08:06:5653.5764-2.795121954420309Clb=-10.1m/s t=-62.5C h=1.9% p=-1.0hPa 405.101 MHz Type=RS41-SG ser=U2750205 Radiosonde
M1CJE-11U27502052022-12-07 08:06:3053.5789-2.797821167420623Clb=-11.4m/s t=-63.6C h=2.0% p=-1.0hPa 405.102 MHz Type=RS41-SG Radiosonde auto_rx v1.5.0
G3HRZU27502052022-12-07 08:06:2553.579-2.79811218120634Clb=-11.6m/s t=-63.6C h=2.0% p=-1.0hPa 405.101 MHz Type=RS41-SG ser=U2750205 Radiosonde
F5RZC-14U27502052022-12-07 08:06:2053.5799-2.799361585720688Clb=-11.0m/s t=-63.6C h=6.1% 405.10MHz Type=RS41-SG Details on http://radiosondy.info
F5RZC-14U27502052022-12-07 08:06:0553.5815-2.801031247020858Clb=-11.7m/s t=-64.0C h=6.5% 405.10MHz Type=RS41-SG Details on http://radiosondy.info
M1CJE-11U27502052022-12-07 08:06:0053.5826-2.802531639320924Clb=-12.2m/s t=-63.9C h=2.0% p=-1.0hPa 405.102 MHz Type=RS41-SG Radiosonde auto_rx v1.5.0
G3HRZU27502052022-12-07 08:05:5453.5835-2.802691813520982Clb=-11.3m/s t=-63.8C h=1.9% p=-1.0hPa 405.101 MHz Type=RS41-SG ser=U2750205 Radiosonde
F5RZC-14U27502052022-12-07 08:05:5053.5836-2.802941017821028Clb=-11.8m/s t=-64.0C h=6.4% 405.10MHz Type=RS41-SG batt=2.5V Details on http://radiosondy.info
F5RZC-14U27502052022-12-07 08:05:3553.5856-2.806121736921197Clb=-12.0m/s t=-64.2C h=6.7% 405.10MHz Type=RS41-SG Details on http://radiosondy.info
G3HRZU27502052022-12-07 08:05:2353.5863-2.8087213410021347Clb=-11.6m/s t=-63.7C h=2.0% p=-1.0hPa 405.101 MHz Type=RS41-SG ser=U2750205 Radiosonde
M0NRDU27502052022-12-07 08:05:1153.5899-2.813241777021646Clb=-12.7m/s t=-63.5C h=1.9% p=-1.0hPa 405.101 MHz Type=RS41-SG Radiosonde
G3HRZU27502052022-12-07 08:04:5253.5904-2.813361252821708Clb=-12.4m/s t=-63.5C h=2.0% p=-1.0hPa 405.101 MHz Type=RS41-SG ser=U2750205 Radiosonde
G3HRZU27502052022-12-07 08:04:2153.5948-2.8202714912022066Clb=-12.2m/s t=-63.1C h=1.8% p=-1.0hPa 405.101 MHz Type=RS41-SG ser=U2750205 Radiosonde
GB3EI-15U27502052022-12-07 08:04:0853.5972-2.8228313610922271Clb=-12.5m/s t=-63.1C h=1.7% p=-1.0hPa 405.100 MHz Type=RS41-SG ser=U2750205 Radiosonde
M1CJE-11U27502052022-12-07 08:04:0053.5988-2.8240517511322343Clb=-14.1m/s t=-63.5C h=1.8% p=-1.0hPa 405.102 MHz Type=RS41-SG Radiosonde auto_rx v1.5.0
G3HRZU27502052022-12-07 08:03:5053.6001-2.824051374322442Clb=-13.4m/s t=-64.1C h=1.9% p=-1.0hPa 405.101 MHz Type=RS41-SG ser=U2750205 Radiosonde
M0NRDU27502052022-12-07 08:03:3853.6027-2.8265818210722593Clb=-13.2m/s t=-64.6C h=2.0% p=-1.0hPa 405.101 MHz Type=RS41-SG Radiosonde
F5RZC-14U27502052022-12-07 08:03:1953.6057-2.828621646722833Clb=-13.8m/s t=-64.5C h=6.9% 405.10MHz Type=RS41-SG Details on http://radiosondy.info
GB3EI-15U27502052022-12-07 08:03:0653.6076-2.829381157823024Clb=-13.4m/s t=-63.7C h=1.9% p=-1.0hPa 405.100 MHz Type=RS41-SG ser=U2750205 Radiosonde
F5RZC-14U27502052022-12-07 08:03:0453.6077-2.829681227623037Clb=-13.9m/s t=-63.7C h=6.2% 405.10MHz Type=RS41-SG TxPastBurst=8h30m batt=2.5V Details on http://radiosondy.info
M1CJE-11U27502052022-12-07 08:03:0053.6087-2.8310315710623105Clb=-14.3m/s t=-63.7C h=1.9% p=-1.0hPa 405.102 MHz Type=RS41-SG Radiosonde auto_rx v1.5.0
F5RZC-14U27502052022-12-07 08:02:4953.6101-2.83138978723246Clb=-15.1m/s t=-63.7C h=6.1% 405.10MHz Type=RS41-SG Details on http://radiosondy.info
G3HRZU27502052022-12-07 08:02:4753.6101-2.83181986723273Clb=-14.3m/s t=-63.8C h=1.9% p=-1.0hPa 405.101 MHz Type=RS41-SG ser=U2750205 Radiosonde
M0NRDU27502052022-12-07 08:02:3653.6122-2.83451876923439Clb=-15.5m/s t=-64.5C h=1.8% p=-1.0hPa 405.101 MHz Type=RS41-SG Radiosonde
F5RZC-14U27502052022-12-07 08:02:3453.6123-2.834451917423455Clb=-16.4m/s t=-64.5C h=6.1% 405.10MHz Type=RS41-SG Details on http://radiosondy.info
M1CJE-11U27502052022-12-07 08:02:3053.6133-2.8367613911723631Clb=-15.1m/s t=-65.5C h=2.0% p=-1.0hPa 405.102 MHz Type=RS41-SG Radiosonde auto_rx v1.5.0
G3HRZU27502052022-12-07 08:02:1653.6147-2.837631816523718Clb=-16.3m/s t=-66.0C h=2.0% p=-1.0hPa 405.101 MHz Type=RS41-SG ser=U2750205 Radiosonde
M0NRDU27502052022-12-07 08:02:0553.6166-2.8414316311723962Clb=-16.4m/s t=-66.2C h=2.1% p=-1.0hPa 405.101 MHz Type=RS41-SG Radiosonde
M1CJE-11U27502052022-12-07 08:02:0053.6168-2.8415416810223978Clb=-16.0m/s t=-66.2C h=2.0% p=-1.0hPa 405.102 MHz Type=RS41-SG Radiosonde auto_rx v1.5.0
G3HRZU27502052022-12-07 08:01:4553.6185-2.8439713812624197Clb=-16.8m/s t=-66.1C h=1.9% p=-1.0hPa 405.101 MHz Type=RS41-SG ser=U2750205 Radiosonde
GB3EI-15U27502052022-12-07 08:01:3353.621-2.845221167624434Clb=-16.4m/s t=-67.1C h=2.1% p=-1.0hPa 405.100 MHz Type=RS41-SG ser=U2750205 Radiosonde
M1CJE-11U27502052022-12-07 08:01:3053.6211-2.845511238524450Clb=-16.6m/s t=-67.2C h=2.1% p=-1.0hPa 405.102 MHz Type=RS41-SG Radiosonde auto_rx v1.5.0
G3HRZU27502052022-12-07 08:01:1453.6238-2.846751063124683Clb=-15.7m/s t=-68.2C h=2.4% p=-1.0hPa 405.101 MHz Type=RS41-SG ser=U2750205 Radiosonde
M0NRDU27502052022-12-07 08:01:0353.6256-2.849951727824870Clb=-17.1m/s t=-67.6C h=2.2% p=-1.0hPa 405.101 MHz Type=RS41-SG Radiosonde
GB3EI-15U27502052022-12-07 08:01:0253.6259-2.851754324902Clb=-16.6m/s t=-67.3C h=2.2% p=-1.0hPa 405.100 MHz Type=RS41-SG ser=U2750205 Radiosonde
M1CJE-11U27502052022-12-07 08:01:0053.626-2.850021702624918Clb=-17.2m/s t=-67.2C h=-1.0% p=-1.0hPa 405.102 MHz Type=RS41-SG Radiosonde auto_rx v1.5.0
G3HRZU27502052022-12-07 08:00:4353.628-2.854051757225170Clb=-16.9m/s t=-66.6C h=1.9% p=-1.0hPa 405.101 MHz Type=RS41-SG ser=U2750205 Radiosonde
M1CJE-11U27502052022-12-07 08:00:3053.6291-2.857214011925396Clb=-16.9m/s t=-273.0C h=-1.0% p=-1.0hPa 405.102 MHz Type=RS41-SG Radiosonde auto_rx v1.5.0
F5RZC-14U27502052022-12-07 08:00:2053.6307-2.857971438925539Clb=-16.3m/s t=-68.6C h=8.0% 405.10MHz Type=RS41-SG batt=2.5V Details on http://radiosondy.info
G3HRZU27502052022-12-07 08:00:1253.632-2.861314210925707Clb=-15.8m/s t=-67.9C h=2.1% p=-1.0hPa 405.101 MHz Type=RS41-SG ser=U2750205 Radiosonde
F5RZC-14U27502052022-12-07 08:00:0553.6329-2.862041667625766Clb=-15.7m/s t=-68.2C h=7.4% 405.10MHz Type=RS41-SG Details on http://radiosondy.info
M0NRDU27502052022-12-07 08:00:0153.6338-2.862361507425865Clb=-31.8m/s t=-68.2C h=2.1% p=-1.0hPa 405.101 MHz Type=RS41-SG Radiosonde
M1CJE-11U27502052022-12-07 08:00:0053.6339-2.862511517425894Clb=-26.8m/s t=-273.0C h=-1.0% p=-1.0hPa 405.102 MHz Type=RS41 Radiosonde auto_rx v1.5.0
GB3EI-15U27502052022-12-07 07:59:5953.6339-2.862511517425894Clb=-26.8m/s t=-68.3C h=2.1% p=-1.0hPa 405.100 MHz Type=RS41-SG ser=U2750205 Radiosonde
F5RZC-14U27502052022-12-07 07:59:5053.6354-2.863941547225901Clb=6.1m/s t=-68.2C h=7.6% 405.10MHz Type=RS41-SG Details on http://radiosondy.info
G3HRZU27502052022-12-07 07:59:4153.6369-2.865051456525850Clb=5.6m/s t=-68.1C h=2.1% p=-1.0hPa 405.101 MHz Type=RS41-SG ser=U2750205 Radiosonde
F5RZC-14U27502052022-12-07 07:59:3553.6378-2.866121537225817Clb=5.8m/s t=-67.9C h=7.5% 405.10MHz Type=RS41-SG batt=2.6V Details on http://radiosondy.info
M0NRDU27502052022-12-07 07:59:3053.6387-2.867011447025783Clb=6.2m/s t=-67.9C h=2.2% p=-1.0hPa 405.101 MHz Type=RS41 Radiosonde
GB3EI-15U27502052022-12-07 07:59:2853.6389-2.867191447225777Clb=6.2m/s t=-67.9C h=2.2% p=-1.0hPa 405.100 MHz Type=RS41-SG ser=U2750205 Radiosonde
G3HRZU27502052022-12-07 07:59:1053.6419-2.870581478025669Clb=5.2m/s t=-67.4C h=2.2% p=-1.0hPa 405.101 MHz Type=RS41-SG ser=U2750205 Radiosonde
M0NRDU27502052022-12-07 07:58:5853.6437-2.872671458525606Clb=5.4m/s t=-67.2C h=-1.0% p=-1.0hPa 405.101 MHz Type=RS41 Radiosonde
GB3EI-15U27502052022-12-07 07:58:5753.6439-2.872871468725600Clb=5.6m/s t=-67.3C h=2.1% p=-1.0hPa 405.100 MHz Type=RS41-SG ser=U2750205 Radiosonde
G3HRZU27502052022-12-07 07:58:3953.647-2.876651408025501Clb=5.5m/s t=-67.6C h=2.1% p=-1.0hPa 405.101 MHz Type=RS41-SG ser=U2750205 Radiosonde
M0NRDU27502052022-12-07 07:58:2753.6487-2.879361347025440Clb=5.1m/s t=-67.7C h=-1.0% p=-1.0hPa 405.101 MHz Type=RS41 Radiosonde
GB3EI-15U27502052022-12-07 07:58:2653.6491-2.880021347825424Clb=4.6m/s t=-67.7C h=2.2% p=-1.0hPa 405.100 MHz Type=RS41-SG ser=U2750205 Radiosonde
G3HRZU27502052022-12-07 07:58:0853.6511-2.883281347225344Clb=5.5m/s t=-67.3C h=2.2% p=-1.0hPa 405.101 MHz Type=RS41-SG ser=U2750205 Radiosonde
M0NRDU27502052022-12-07 07:57:5653.6527-2.885781316925283Clb=4.0m/s t=-273.0C h=-1.0% p=-1.0hPa 405.101 MHz Type=RS41 Radiosonde
GB3EI-15U27502052022-12-07 07:57:5553.6527-2.885781316925283Clb=4.0m/s t=-67.1C h=2.1% p=-1.0hPa 405.100 MHz Type=RS41-SG ser=U2750205 Radiosonde
G3HRZU27502052022-12-07 07:57:3753.6549-2.889461356925200Clb=4.0m/s t=-66.5C h=2.0% p=-1.0hPa 405.101 MHz Type=RS41-SG ser=U2750205 Radiosonde
GB3EI-15U27502052022-12-07 07:57:2453.6564-2.892151307025143Clb=5.1m/s t=-66.1C h=-1.0% p=-1.0hPa 405.100 MHz Type=RS41-SG ser=U2750205 Radiosonde
F5RZC-14U27502052022-12-07 07:57:2053.6569-2.892971447025125Clb=4.4m/s t=-66.0C h=6.8% 405.10MHz Type=RS41-SG Details on http://radiosondy.info
G3HRZU27502052022-12-07 07:57:0653.6586-2.895971327225068Clb=3.8m/s t=-66.0C h=2.0% p=-1.0hPa 405.101 MHz Type=RS41-SG ser=U2750205 Radiosonde
F5RZC-14U27502052022-12-07 07:57:0553.6587-2.896191347425064Clb=4.7m/s t=-66.0C h=7.0% 405.10MHz Type=RS41-SG Details on http://radiosondy.info
GB3EI-15U27502052022-12-07 07:56:5353.6604-2.898971368325009Clb=3.9m/s t=-66.1C h=-1.0% p=-1.0hPa 405.100 MHz Type=RS41-SG ser=U2750205 Radiosonde
F5RZC-14U27502052022-12-07 07:56:5053.6607-2.899451407625000Clb=4.0m/s t=-66.0C h=6.8% 405.10MHz Type=RS41-SG TxPastBurst=8h30m batt=2.5V Details on http://radiosondy.info
G3HRZU27502052022-12-07 07:56:3553.6627-2.902781327824940Clb=4.5m/s t=-66.8C h=2.0% p=-1.0hPa 405.101 MHz Type=RS41-SG ser=U2750205 Radiosonde
GB3EI-15U27502052022-12-07 07:56:2253.6641-2.905811277424885Clb=4.6m/s t=-273.0C h=-1.0% p=-1.0hPa 405.100 MHz Type=RS41-SG ser=U2750205 Radiosonde
G3HRZU27502052022-12-07 07:56:0453.6661-2.909541356124806Clb=5.0m/s t=-67.6C h=2.1% p=-1.0hPa 405.101 MHz Type=RS41-SG ser=U2750205 Radiosonde
G3HRZU27502052022-12-07 07:55:3353.6707-2.914461586724663Clb=5.1m/s t=-68.2C h=2.3% p=-1.0hPa 405.101 MHz Type=RS41-SG ser=U2750205 Radiosonde
G3HRZU27502052022-12-07 07:55:0253.6755-2.917891566324516Clb=4.4m/s t=-67.6C h=2.3% p=-1.0hPa 405.101 MHz Type=RS41-SG ser=U2750205 Radiosonde
G3HRZU27502052022-12-07 07:54:3153.6804-2.921611546924361Clb=5.3m/s t=-66.3C h=2.0% p=-1.0hPa 405.101 MHz Type=RS41-SG ser=U2750205 Radiosonde
F5RZC-14U27502052022-12-07 07:54:2053.682-2.922721517224311Clb=4.8m/s t=-65.9C h=6.9% 405.10MHz Type=RS41-SG Details on http://radiosondy.info
F5RZC-14U27502052022-12-07 07:54:0553.6844-2.924841447624229Clb=5.1m/s t=-66.3C h=7.0% 405.10MHz Type=RS41-SG batt=2.5V Details on http://radiosondy.info
G3HRZU27502052022-12-07 07:54:0053.6852-2.925961437624196Clb=4.3m/s t=-66.1C h=2.0% p=-1.0hPa 405.101 MHz Type=RS41-SG ser=U2750205 Radiosonde
F5RZC-14U27502052022-12-07 07:53:5053.6867-2.927651497824148Clb=6.3m/s t=-66.0C h=6.9% 405.10MHz Type=RS41-SG Details on http://radiosondy.info
F5RZC-14U27502052022-12-07 07:53:3553.6891-2.930141477424074Clb=4.4m/s t=-66.4C h=6.9% 405.10MHz Type=RS41-SG Details on http://radiosondy.info
G3HRZU27502052022-12-07 07:53:2953.6902-2.931341397824040Clb=4.0m/s t=-66.6C h=2.1% p=-1.0hPa 405.101 MHz Type=RS41-SG ser=U2750205 Radiosonde
G3HRZU27502052022-12-07 07:52:5853.6953-2.938391388123886Clb=4.7m/s t=-66.3C h=2.0% p=-1.0hPa 405.101 MHz Type=RS41-SG ser=U2750205 Radiosonde
GURGE2-15U27502052022-12-07 07:52:5153.6986-2.943761356723773Clb=4.5m/s t=-273.0C h=-1.0% p=-1.0hPa 405.101 MHz Type=RS41 ser=U2750205 Radiosonde
G3HRZU27502052022-12-07 07:52:2653.699-2.944311436723759Clb=4.2m/s t=-66.4C h=2.2% p=-1.0hPa 405.101 MHz Type=RS41-SG ser=U2750205 Radiosonde
G3HRZU27502052022-12-07 07:51:5553.7036-2.949751526523619Clb=4.1m/s t=-65.7C h=1.9% p=-1.0hPa 405.101 MHz Type=RS41-SG ser=U2750205 Radiosonde
G3HRZU27502052022-12-07 07:51:2453.7084-2.954521497023490Clb=4.3m/s t=-65.2C h=1.9% p=-1.0hPa 405.101 MHz Type=RS41-SG ser=U2750205 Radiosonde
F5RZC-14U27502052022-12-07 07:51:2053.709-2.955131497023473Clb=5.2m/s t=-65.1C h=6.8% 405.10MHz Type=RS41-SG batt=2.5V Details on http://radiosondy.info
F5RZC-14U27502052022-12-07 07:51:0553.7113-2.957531487023408Clb=3.5m/s t=-64.9C h=6.5% 405.10MHz Type=RS41-SG Details on http://radiosondy.info
G3HRZU27502052022-12-07 07:50:5353.7129-2.95971446523355Clb=4.7m/s t=-64.8C h=1.9% p=-1.0hPa 405.101 MHz Type=RS41-SG ser=U2750205 Radiosonde
F5RZC-14U27502052022-12-07 07:50:5053.7133-2.960211447423343Clb=4.3m/s t=-64.9C h=6.5% 405.10MHz Type=RS41-SG Details on http://radiosondy.info
F5RZC-14U27502052022-12-07 07:50:3553.7156-2.962881477823275Clb=4.7m/s t=-64.8C h=6.5% 405.10MHz Type=RS41-SG TxPastBurst=8h30m batt=2.5V Details on http://radiosondy.info
G3HRZU27502052022-12-07 07:50:2253.7176-2.964841496523216Clb=5.2m/s t=-64.9C h=1.9% p=-1.0hPa 405.101 MHz Type=RS41-SG ser=U2750205 Radiosonde
G3HRZU27502052022-12-07 07:49:5153.7223-2.96881597423064Clb=4.9m/s t=-64.5C h=1.8% p=-1.0hPa 405.101 MHz Type=RS41-SG ser=U2750205 Radiosonde
G3HRZU27502052022-12-07 07:49:2053.728-2.972781629122901Clb=4.9m/s t=-65.2C h=1.9% p=-1.0hPa 405.101 MHz Type=RS41-SG ser=U2750205 Radiosonde
G3HRZU27502052022-12-07 07:48:4953.7341-2.976471607822732Clb=5.2m/s t=-65.0C h=1.9% p=-1.0hPa 405.101 MHz Type=RS41-SG ser=U2750205 Radiosonde
F5RZC-14U27502052022-12-07 07:48:1953.7395-2.979651618122570Clb=4.9m/s t=-64.2C h=6.2% 405.10MHz Type=RS41-SG Details on http://radiosondy.info
G3HRZU27502052022-12-07 07:48:1853.7397-2.979751617422565Clb=5.2m/s t=-64.2C h=1.8% p=-1.0hPa 405.101 MHz Type=RS41-SG ser=U2750205 Radiosonde
F5RZC-14U27502052022-12-07 07:48:0453.7424-2.981411578722494Clb=4.4m/s t=-63.9C h=6.3% 405.10MHz Type=RS41-SG Details on http://radiosondy.info
F5RZC-14U27502052022-12-07 07:47:4953.7454-2.983581558122418Clb=4.1m/s t=-63.8C h=6.3% 405.10MHz Type=RS41-SG batt=2.5V Details on http://radiosondy.info
G3HRZU27502052022-12-07 07:47:4753.7458-2.98391568922409Clb=4.9m/s t=-63.8C h=1.7% p=-1.0hPa 405.101 MHz Type=RS41-SG ser=U2750205 Radiosonde
F5RZC-14U27502052022-12-07 07:47:3453.7482-2.985631516922347Clb=4.5m/s t=-63.4C h=6.2% 405.10MHz Type=RS41-SG Details on http://radiosondy.info
G3HRZU27502052022-12-07 07:47:1653.7512-2.988391527622263Clb=3.8m/s t=-63.0C h=1.8% p=-1.0hPa 405.101 MHz Type=RS41-SG ser=U2750205 Radiosonde
G3HRZU27502052022-12-07 07:46:4553.7556-2.99311406322127Clb=4.7m/s t=-62.7C h=1.7% p=-1.0hPa 405.101 MHz Type=RS41-SG ser=U2750205 Radiosonde
GB3EI-15U27502052022-12-07 07:46:3253.7575-2.995691336922068Clb=4.2m/s t=-62.9C h=-1.0% p=-1.0hPa 405.100 MHz Type=RS41-SG ser=U2750205 Radiosonde
G3HRZU27502052022-12-07 07:46:1453.7597-2.999331366321995Clb=4.7m/s t=-63.4C h=1.8% p=-1.0hPa 405.101 MHz Type=RS41-SG ser=U2750205 Radiosonde
GB3EI-15U27502052022-12-07 07:46:0153.7613-3.001841376921941Clb=4.2m/s t=-63.2C h=-1.0% p=-1.0hPa 405.100 MHz Type=RS41-SG ser=U2750205 Radiosonde
G3HRZU27502052022-12-07 07:45:4353.7639-3.005231426921870Clb=3.4m/s t=-63.4C h=1.8% p=-1.0hPa 405.101 MHz Type=RS41-SG ser=U2750205 Radiosonde
GB3EI-15U27502052022-12-07 07:45:3053.7657-3.007421455621820Clb=3.3m/s t=-273.0C h=-1.0% p=-1.0hPa 405.100 MHz Type=RS41-SG ser=U2750205 Radiosonde
F5RZC-14U27502052022-12-07 07:45:1953.7671-3.00911446921781Clb=3.6m/s t=-63.5C h=6.1% 405.10MHz Type=RS41-SG Details on http://radiosondy.info
G3HRZU27502052022-12-07 07:45:1253.7682-3.010261476521748Clb=4.1m/s t=-63.6C h=1.8% p=-1.0hPa 405.101 MHz Type=RS41-SG ser=U2750205 Radiosonde
F5RZC-14U27502052022-12-07 07:45:0453.7692-3.011511406321719Clb=3.3m/s t=-63.6C h=6.2% 405.10MHz Type=RS41-SG batt=2.5V Details on http://radiosondy.info
F5RZC-14U27502052022-12-07 07:44:4953.7709-3.014091366121658Clb=3.9m/s t=-63.6C h=6.2% 405.10MHz Type=RS41-SG Details on http://radiosondy.info
G3HRZU27502052022-12-07 07:44:4153.7721-3.015771396321614Clb=3.1m/s t=-63.8C h=1.9% p=-1.0hPa 405.101 MHz Type=RS41-SG ser=U2750205 Radiosonde
F5RZC-14U27502052022-12-07 07:44:3453.7726-3.016661395921592Clb=4.3m/s t=-63.6C h=6.3% 405.10MHz Type=RS41-SG Details on http://radiosondy.info
G3HRZU27502052022-12-07 07:44:0953.7753-3.0211375921480Clb=4.1m/s t=-63.7C h=1.9% p=-1.0hPa 405.101 MHz Type=RS41-SG ser=U2750205 Radiosonde
G3HRZU27502052022-12-07 07:43:3953.7781-3.026411285721335Clb=4.5m/s t=-273.0C h=-1.0% p=-1.0hPa 405.101 MHz Type=RS41-SG ser=U2750205 Radiosonde
G3HRZU27502052022-12-07 07:43:0753.7808-3.031721285421189Clb=4.8m/s t=-273.0C h=-1.0% p=-1.0hPa 405.101 MHz Type=RS41-SG ser=U2750205 Radiosonde
GURGE2-15U27502052022-12-07 07:43:0153.7828-3.035931355421077Clb=4.6m/s t=-273.0C h=-1.0% p=-1.0hPa 405.101 MHz Type=RS41-SG ser=U2750205 Radiosonde
GB3EI-15U27502052022-12-07 07:42:5453.7831-3.036361415221062Clb=4.3m/s t=-273.0C h=-1.0% p=-1.0hPa 405.100 MHz Type=RS41-SG ser=U2750205 Radiosonde
G3HRZU27502052022-12-07 07:42:3653.7836-3.037111355021037Clb=4.7m/s t=-273.0C h=-1.0% p=-1.0hPa 405.101 MHz Type=RS41-SG ser=U2750205 Radiosonde
GURGE2-15U27502052022-12-07 07:42:3053.7841-3.038071385621007Clb=4.4m/s t=-273.0C h=-1.0% p=-1.0hPa 405.101 MHz Type=RS41-SG ser=U2750205 Radiosonde
GB3EI-15U27502052022-12-07 07:42:2353.785-3.039131405720972Clb=5.2m/s t=-273.0C h=-1.0% p=-1.0hPa 405.100 MHz Type=RS41 ser=U2750205 Radiosonde
F5RZC-14U27502052022-12-07 07:42:1953.7854-3.039791356320953Clb=3.7m/s t=-64.1C h=6.5% 405.10MHz Type=RS41-SG TxPastBurst=8h30m batt=2.5V Details on http://radiosondy.info
F5RZC-14U27502052022-12-07 07:42:0453.7871-3.042471356120881Clb=4.7m/s t=-64.3C h=6.5% 405.10MHz Type=RS41-SG Details on http://radiosondy.info
GURGE2-15U27502052022-12-07 07:41:5953.7879-3.043631457220848Clb=4.4m/s t=-273.0C h=-1.0% p=-1.0hPa 405.101 MHz Type=RS41-SG ser=U2750205 Radiosonde
F5RZC-14U27502052022-12-07 07:41:4953.7889-3.044871426120811Clb=5.1m/s t=-64.0C h=6.4% 405.10MHz Type=RS41-SG Details on http://radiosondy.info
F5RZC-14U27502052022-12-07 07:41:3453.7907-3.047161415620740Clb=4.4m/s t=-64.0C h=6.4% 405.10MHz Type=RS41-SG batt=2.5V Details on http://radiosondy.info
GB3EI-15U27502052022-12-07 07:41:2153.7923-3.049371455620676Clb=5.1m/s t=-273.0C h=-1.0% p=-1.0hPa 405.100 MHz Type=RS41 ser=U2750205 Radiosonde
GB3EI-15U27502052022-12-07 07:40:5053.7969-3.054181495220500Clb=4.6m/s t=-273.0C h=-1.0% p=-1.0hPa 405.100 MHz Type=RS41 ser=U2750205 Radiosonde
GURGE2-15U27502052022-12-07 07:40:2653.8-3.056741495220377Clb=4.7m/s t=-273.0C h=-1.0% p=-1.0hPa 405.101 MHz Type=RS41-SG ser=U2750205 Radiosonde
GURGE2-15U27502052022-12-07 07:39:5553.805-3.061581495220178Clb=3.7m/s t=-273.0C h=-1.0% p=-1.0hPa 405.101 MHz Type=RS41 ser=U2750205 Radiosonde
F5RZC-14U27502052022-12-07 07:39:1953.806-3.062721435920137Clb=3.5m/s t=-63.9C h=6.5% 405.10MHz Type=RS41-SG Details on http://radiosondy.info
F5RZC-14U27502052022-12-07 07:39:0453.8079-3.064731506120068Clb=4.1m/s t=-63.7C h=6.3% 405.10MHz Type=RS41-SG Details on http://radiosondy.info
F5RZC-14U27502052022-12-07 07:38:4953.8097-3.066951455419999Clb=5.0m/s t=-63.9C h=6.3% 405.10MHz Type=RS41-SG batt=2.6V Details on http://radiosondy.info
F5RZC-14U27502052022-12-07 07:38:3453.8113-3.068861385619928Clb=4.6m/s t=-63.7C h=6.5% 405.10MHz Type=RS41-SG Details on http://radiosondy.info
G3HRZU27502052022-12-07 07:36:5553.8212-3.081371515019441Clb=4.9m/s t=-61.8C h=1.8% p=-1.0hPa 405.101 MHz Type=RS41-SG ser=U2750205 Radiosonde
G3HRZU27502052022-12-07 07:36:2453.8248-3.085461455719287Clb=3.9m/s t=-61.3C h=1.8% p=-1.0hPa 405.101 MHz Type=RS41-SG ser=U2750205 Radiosonde
F5RZC-14U27502052022-12-07 07:36:1953.8249-3.08561446119283Clb=5.0m/s t=-61.2C h=5.7% 405.10MHz Type=RS41-SG Details on http://radiosondy.info
F5RZC-14U27502052022-12-07 07:36:0453.8268-3.087851436519214Clb=3.5m/s t=-61.0C h=5.7% 405.10MHz Type=RS41-SG TxPastBurst=8h30m batt=2.5V Details on http://radiosondy.info
G3HRZU27502052022-12-07 07:35:5353.8284-3.089861415919159Clb=5.1m/s t=-60.7C h=1.7% p=-1.0hPa 405.101 MHz Type=RS41-SG ser=U2750205 Radiosonde
F5RZC-14U27502052022-12-07 07:35:4953.8287-3.090341375919144Clb=5.5m/s t=-60.6C h=5.5% 405.10MHz Type=RS41-SG Details on http://radiosondy.info
F5RZC-14U27502052022-12-07 07:35:3453.8303-3.092671355219071Clb=5.5m/s t=-60.2C h=5.4% 405.10MHz Type=RS41-SG Details on http://radiosondy.info
G3HRZU27502052022-12-07 07:35:2153.8316-3.094661325619009Clb=4.2m/s t=-59.9C h=1.7% p=-1.0hPa 405.101 MHz Type=RS41-SG ser=U2750205 Radiosonde
G3HRZU27502052022-12-07 07:34:5053.8346-3.099751395918863Clb=5.5m/s t=-60.4C h=1.7% p=-1.0hPa 405.101 MHz Type=RS41-SG ser=U2750205 Radiosonde
G3HRZU27502052022-12-07 07:34:1953.8379-3.104711426318717Clb=4.1m/s t=-60.4C h=1.7% p=-1.0hPa 405.101 MHz Type=RS41-SG ser=U2750205 Radiosonde
G3HRZU27502052022-12-07 07:33:4853.8408-3.110141295218573Clb=5.2m/s t=-60.6C h=1.8% p=-1.0hPa 405.101 MHz Type=RS41-SG ser=U2750205 Radiosonde
F5RZC-14U27502052022-12-07 07:33:2053.843-3.114831324118448Clb=4.3m/s t=-60.5C h=5.6% 405.10MHz Type=RS41-SG batt=2.5V Details on http://radiosondy.info
G3HRZU27502052022-12-07 07:33:1753.8432-3.115181343518433Clb=4.9m/s t=-60.6C h=1.8% p=-1.0hPa 405.101 MHz Type=RS41-SG ser=U2750205 Radiosonde
F5RZC-14U27502052022-12-07 07:33:0553.844-3.116761274318381Clb=4.7m/s t=-60.7C h=5.6% 405.10MHz Type=RS41-SG Details on http://radiosondy.info
F5RZC-14U27502052022-12-07 07:32:5053.8449-3.118941204118318Clb=4.3m/s t=-60.4C h=5.5% 405.10MHz Type=RS41-SG Details on http://radiosondy.info
G3HRZU27502052022-12-07 07:32:4653.8452-3.119651254118296Clb=5.0m/s t=-60.5C h=1.8% p=-1.0hPa 405.101 MHz Type=RS41-SG ser=U2750205 Radiosonde
F5RZC-14U27502052022-12-07 07:32:3553.8457-3.121091222818254Clb=4.4m/s t=-60.5C h=5.5% 405.10MHz Type=RS41-SG batt=2.5V Details on http://radiosondy.info
G3HRZU27502052022-12-07 07:32:1553.8464-3.123821173518172Clb=4.2m/s t=-60.3C h=1.8% p=-1.0hPa 405.101 MHz Type=RS41-SG ser=U2750205 Radiosonde
G3HRZU27502052022-12-07 07:31:4453.8478-3.128651133918061Clb=3.1m/s t=-60.3C h=1.8% p=-1.0hPa 405.101 MHz Type=RS41-SG ser=U2750205 Radiosonde
GURGE2-15U27502052022-12-07 07:31:3753.8481-3.129791173518031Clb=3.5m/s t=-60.2C h=-1.0% p=-1.0hPa 405.101 MHz Type=RS41 ser=U2750205 Radiosonde
G3HRZU27502052022-12-07 07:31:1353.8493-3.132551332617948Clb=4.1m/s t=-61.0C h=1.9% p=-1.0hPa 405.101 MHz Type=RS41-SG ser=U2750205 Radiosonde
GURGE2-15U27502052022-12-07 07:31:0653.8497-3.133441382817910Clb=2.9m/s t=-61.2C h=-1.0% p=-1.0hPa 405.101 MHz Type=RS41 ser=U2750205 Radiosonde
G3HRZU27502052022-12-07 07:30:4253.8508-3.134991332417823Clb=3.8m/s t=-60.7C h=1.9% p=-1.0hPa 405.101 MHz Type=RS41-SG ser=U2750205 Radiosonde
GURGE2-15U27502052022-12-07 07:30:3553.8513-3.135831312017777Clb=5.0m/s t=-60.3C h=-1.0% p=-1.0hPa 405.101 MHz Type=RS41 ser=U2750205 Radiosonde
F5RZC-14U27502052022-12-07 07:30:2053.8516-3.136591252617735Clb=3.9m/s t=-60.1C h=5.4% 405.10MHz Type=RS41-SG Details on http://radiosondy.info
G3HRZU27502052022-12-07 07:30:1153.852-3.137311322417698Clb=3.7m/s t=-60.1C h=1.8% p=-1.0hPa 405.101 MHz Type=RS41-SG ser=U2750205 Radiosonde
F5RZC-14U27502052022-12-07 07:30:0553.8522-3.137861273017673Clb=4.0m/s t=-60.2C h=5.3% 405.10MHz Type=RS41-SG Details on http://radiosondy.info
F5RZC-14U27502052022-12-07 07:29:5053.853-3.139191433317608Clb=5.1m/s t=-60.1C h=5.4% 405.10MHz Type=RS41-SG TxPastBurst=8h30m batt=2.5V Details on http://radiosondy.info
G3HRZU27502052022-12-07 07:29:4053.8536-3.140251343517558Clb=5.2m/s t=-60.0C h=1.8% p=-1.0hPa 405.101 MHz Type=RS41-SG ser=U2750205 Radiosonde
F5RZC-14U27502052022-12-07 07:29:3553.8539-3.140681363917540Clb=3.6m/s t=-59.9C h=5.5% 405.10MHz Type=RS41-SG Details on http://radiosondy.info
GURGE2-15U27502052022-12-07 07:29:3353.8541-3.140971383317526Clb=4.4m/s t=-273.0C h=-1.0% p=-1.0hPa 405.101 MHz Type=RS41 ser=U2750205 Radiosonde
G3HRZU27502052022-12-07 07:29:0953.8556-3.143731303717413Clb=4.9m/s t=-59.4C h=1.7% p=-1.0hPa 405.101 MHz Type=RS41-SG ser=U2750205 Radiosonde
G3HRZU27502052022-12-07 07:28:3853.8572-3.147571203517265Clb=4.2m/s t=-59.1C h=1.7% p=-1.0hPa 405.101 MHz Type=RS41-SG ser=U2750205 Radiosonde
G3HRZU27502052022-12-07 07:28:0753.8589-3.15211083917112Clb=5.4m/s t=-58.6C h=1.7% p=-1.0hPa 405.101 MHz Type=RS41-SG ser=U2750205 Radiosonde
G3HRZU27502052022-12-07 07:27:3653.8605-3.156841294316962Clb=3.9m/s t=-58.5C h=1.7% p=-1.0hPa 405.101 MHz Type=RS41-SG ser=U2750205 Radiosonde
F5RZC-14U27502052022-12-07 07:27:1953.8617-3.158811354116890Clb=4.2m/s t=-58.7C h=5.1% 405.10MHz Type=RS41-SG Details on http://radiosondy.info
G3HRZU27502052022-12-07 07:27:0553.8629-3.160251564116824Clb=4.7m/s t=-58.8C h=1.8% p=-1.0hPa 405.101 MHz Type=RS41-SG ser=U2750205 Radiosonde
F5RZC-14U27502052022-12-07 07:27:0453.8629-3.160251574116824Clb=4.7m/s t=-58.7C h=5.2% 405.10MHz Type=RS41-SG batt=2.5V Details on http://radiosondy.info
F5RZC-14U27502052022-12-07 07:26:4953.8643-3.161231563916760Clb=4.1m/s t=-58.7C h=5.2% 405.10MHz Type=RS41-SG Details on http://radiosondy.info
F5RZC-14U27502052022-12-07 07:26:3453.8656-3.162251542816699Clb=3.6m/s t=-58.7C h=5.1% 405.10MHz Type=RS41-SG Details on http://radiosondy.info
G3HRZU27502052022-12-07 07:26:0253.8685-3.165181484616572Clb=4.3m/s t=-59.2C h=1.9% p=-1.0hPa 405.101 MHz Type=RS41-SG ser=U2750205 Radiosonde
G3HRZU27502052022-12-07 07:25:3153.8709-3.169121223916451Clb=3.2m/s t=-59.6C h=2.0% p=-1.0hPa 405.101 MHz Type=RS41-SG ser=U2750205 Radiosonde
G3HRZU27502052022-12-07 07:25:0053.8722-3.172841272816328Clb=4.9m/s t=-59.4C h=2.0% p=-1.0hPa 405.101 MHz Type=RS41-SG ser=U2750205 Radiosonde
G3HRZU27502052022-12-07 07:24:2953.8733-3.175311322016197Clb=4.3m/s t=-58.6C h=1.9% p=-1.0hPa 405.101 MHz Type=RS41-SG ser=U2750205 Radiosonde
F5RZC-14U27502052022-12-07 07:24:1953.8736-3.176111422416154Clb=4.7m/s t=-58.3C h=5.3% 405.10MHz Type=RS41-SG batt=2.6V Details on http://radiosondy.info
F5RZC-14U27502052022-12-07 07:24:0453.8744-3.177021522816087Clb=3.5m/s t=-58.3C h=5.3% 405.10MHz Type=RS41-SG Details on http://radiosondy.info
G3HRZU27502052022-12-07 07:23:5853.8747-3.177271563016061Clb=3.5m/s t=-58.1C h=1.9% p=-1.0hPa 405.101 MHz Type=RS41-SG ser=U2750205 Radiosonde
F5RZC-14U27502052022-12-07 07:23:4953.8753-3.177871573516018Clb=4.1m/s t=-58.0C h=5.0% 405.10MHz Type=RS41-SG Details on http://radiosondy.info
F5RZC-14U27502052022-12-07 07:23:3453.8766-3.178581674415950Clb=3.4m/s t=-58.0C h=5.2% 405.10MHz Type=RS41-SG TxPastBurst=8h30m batt=2.5V Details on http://radiosondy.info
G3HRZU27502052022-12-07 07:23:2753.8772-3.178811673515921Clb=4.4m/s t=-57.9C h=1.9% p=-1.0hPa 405.101 MHz Type=RS41-SG ser=U2750205 Radiosonde
G3HRZU27502052022-12-07 07:22:5653.8801-3.17991754615787Clb=3.7m/s t=-57.7C h=1.9% p=-1.0hPa 405.101 MHz Type=RS41-SG ser=U2750205 Radiosonde
G3HRZU27502052022-12-07 07:22:2553.8837-3.180731654115655Clb=4.1m/s t=-57.6C h=1.9% p=-1.0hPa 405.101 MHz Type=RS41-SG ser=U2750205 Radiosonde
G3HRZU27502052022-12-07 07:21:5453.8869-3.182741615015532Clb=3.8m/s t=-57.6C h=2.0% p=-1.0hPa 405.101 MHz Type=RS41-SG ser=U2750205 Radiosonde
G3HRZU27502052022-12-07 07:21:2353.8903-3.185921454815408Clb=3.9m/s t=-58.7C h=2.2% p=-1.0hPa 405.101 MHz Type=RS41-SG ser=U2750205 Radiosonde
F5RZC-14U27502052022-12-07 07:21:1953.8907-3.186371414115391Clb=4.9m/s t=-58.5C h=5.5% 405.10MHz Type=RS41-SG Details on http://radiosondy.info
F5RZC-14U27502052022-12-07 07:21:0453.8918-3.18811404115331Clb=3.2m/s t=-58.9C h=5.4% 405.10MHz Type=RS41-SG Details on http://radiosondy.info
G3HRZU27502052022-12-07 07:20:5253.8928-3.189421484115282Clb=4.8m/s t=-59.4C h=2.3% p=-1.0hPa 405.101 MHz Type=RS41-SG ser=U2750205 Radiosonde
F5RZC-14U27502052022-12-07 07:20:4953.893-3.189681523715271Clb=4.5m/s t=-59.5C h=5.8% 405.10MHz Type=RS41-SG batt=2.7V Details on http://radiosondy.info
F5RZC-14U27502052022-12-07 07:20:3453.8942-3.190911534315213Clb=3.6m/s t=-59.4C h=5.7% 405.10MHz Type=RS41-SG Details on http://radiosondy.info
M0DMP-12U27502052022-12-07 07:20:3053.8946-3.191311473715193Clb=3.5m/s t=-59.4C h=2.3% p=-1.0hPa 405.101 MHz Type=RS41-SG Radiosonde auto_rx v1.5.9
G3HRZU27502052022-12-07 07:20:2153.8952-3.191961463315161Clb=3.5m/s t=-59.3C h=2.3% p=-1.0hPa 405.101 MHz Type=RS41-SG ser=U2750205 Radiosonde
M0DMP-12U27502052022-12-07 07:20:0053.8969-3.193921423715067Clb=3.3m/s t=-59.0C h=2.3% p=-1.0hPa 405.101 MHz Type=RS41-SG Radiosonde auto_rx v1.5.9
G3HRZU27502052022-12-07 07:19:5053.8976-3.194711503515030Clb=4.3m/s t=-58.9C h=2.2% p=-1.0hPa 405.101 MHz Type=RS41-SG ser=U2750205 Radiosonde
M0DMP-12U27502052022-12-07 07:19:3053.8992-3.196351533914937Clb=3.7m/s t=-58.4C h=2.1% p=-1.0hPa 405.101 MHz Type=RS41-SG Radiosonde auto_rx v1.5.9
G3HRZU27502052022-12-07 07:19:1953.8999-3.196881583114904Clb=4.1m/s t=-58.3C h=2.1% p=-1.0hPa 405.101 MHz Type=RS41-SG ser=U2750205 Radiosonde
G3HRZU27502052022-12-07 07:18:4853.9027-3.198471624314767Clb=4.2m/s t=-58.5C h=2.2% p=-1.0hPa 405.101 MHz Type=RS41-SG ser=U2750205 Radiosonde
F5RZC-14U27502052022-12-07 07:18:1953.9056-3.199941624614643Clb=5.1m/s calibration 96% 405.10MHz Type=RS41-SG Details on http://radiosondy.info
G3HRZU27502052022-12-07 07:18:1753.906-3.200111654314629Clb=4.4m/s t=-58.2C h=2.2% p=-1.0hPa 405.101 MHz Type=RS41-SG ser=U2750205 Radiosonde
F5RZC-14U27502052022-12-07 07:18:0453.9072-3.200881554614576Clb=4.9m/s calibration 66% Type=RS41-SG batt=2.6V Details on http://radiosondy.info
F5RZC-14U27502052022-12-07 07:17:4953.9088-3.202141464414511Clb=3.1m/s calibration 60% Type=RS41-SG Details on http://radiosondy.info
G3HRZU27502052022-12-07 07:17:4653.9091-3.202551464114493Clb=4.4m/s t=-57.5C h=2.0% p=-1.0hPa 405.101 MHz Type=RS41-SG ser=U2750205 Radiosonde
F5RZC-14U27502052022-12-07 07:17:3453.9101-3.203751445614447Clb=3.1m/s calibration 35% Type=RS41-SG Details on http://radiosondy.info
M0DMP-12U27502052022-12-07 07:17:3053.9107-3.204561394414417Clb=4.0m/s t=-57.2C h=2.2% p=-1.0hPa 405.101 MHz Type=RS41-SG Radiosonde auto_rx v1.5.9
G3HRZU27502052022-12-07 07:17:1553.9119-3.206031524414362Clb=4.2m/s t=-56.9C h=2.1% p=-1.0hPa 405.101 MHz Type=RS41-SG ser=U2750205 Radiosonde
G3HRZU27502052022-12-07 07:16:4353.9145-3.208831443314237Clb=4.2m/s t=-57.0C h=2.1% p=-1.0hPa 405.101 MHz Type=RS41-SG ser=U2750205 Radiosonde
M0DMP-12U27502052022-12-07 07:16:3053.9155-3.209751573314179Clb=4.3m/s t=-56.9C h=-1.0% p=-1.0hPa 405.101 MHz Type=RS41-SG Radiosonde auto_rx v1.5.9
G4VFL-14U27502052022-12-07 07:16:1353.9167-3.210531624614123Clb=4.3m/s t=-57.2C h=5.3% 405.10MHz Type=RS41-SG Details on http://radiosondy.info
G3HRZU27502052022-12-07 07:16:1253.9168-3.210591593914119Clb=3.6m/s t=-57.3C h=2.3% p=-1.0hPa 405.101 MHz Type=RS41-SG ser=U2750205 Radiosonde
G4VFL-14U27502052022-12-07 07:15:5653.9185-3.211741535014062Clb=3.7m/s t=-57.4C h=5.2% 405.10MHz Type=RS41-SG Details on http://radiosondy.info
G3HRZU27502052022-12-07 07:15:4153.9203-3.212831615414008Clb=3.0m/s t=-58.8C h=2.6% p=-1.0hPa 405.101 MHz Type=RS41-SG ser=U2750205 Radiosonde
M0DMP-12U27502052022-12-07 07:15:3053.9221-3.213551655913966Clb=3.5m/s t=-59.0C h=-1.0% p=-1.0hPa 405.101 MHz Type=RS41-SG Radiosonde auto_rx v1.5.9
G4VFL-14U27502052022-12-07 07:15:2653.9225-3.213741655713956Clb=3.1m/s t=-58.9C h=5.9% 405.10MHz Type=RS41-SG Details on http://radiosondy.info
F5RZC-14U27502052022-12-07 07:15:1853.9237-3.214321585413929Clb=3.3m/s calibration 7% Type=RS41 batt=2.7V Details on http://radiosondy.info
G4VFL-14U27502052022-12-07 07:15:1153.9245-3.214931595413904Clb=3.2m/s t=-58.7C h=5.8% 405.10MHz Type=RS41-SG Details on http://radiosondy.info
G3HRZU27502052022-12-07 07:15:1053.9248-3.215111555613896Clb=3.5m/s t=-58.7C h=2.6% p=-1.0hPa 405.101 MHz Type=RS41-SG ser=U2750205 Radiosonde
G4VFL-14U27502052022-12-07 07:14:5553.9264-3.216431515013845Clb=4.0m/s t=-58.4C h=5.9% 405.10MHz Type=RS41-SG batt=2.6V Details on http://radiosondy.info
G3HRZU27502052022-12-07 07:14:3953.9281-3.21811464413783Clb=3.2m/s t=-58.6C h=2.6% p=-1.0hPa 405.101 MHz Type=RS41-SG ser=U2750205 Radiosonde
M0DMP-12U27502052022-12-07 07:14:3053.9293-3.219261503913732Clb=3.5m/s t=-58.6C h=-1.0% p=-1.0hPa 405.101 MHz Type=RS41-SG Radiosonde auto_rx v1.5.9
G4VFL-14U27502052022-12-07 07:14:2453.9295-3.219421514313724Clb=4.3m/s t=-58.8C h=5.9% 405.10MHz Type=RS41-SG Details on http://radiosondy.info
G3HRZU27502052022-12-07 07:14:0853.9308-3.220751423713660Clb=3.4m/s t=-58.7C h=2.7% p=-1.0hPa 405.101 MHz Type=RS41-SG ser=U2750205 Radiosonde
M0DMP-12U27502052022-12-07 07:14:0053.9314-3.221641353313622Clb=4.8m/s t=-273.0C h=-1.0% p=-1.0hPa 405.101 MHz Type=RS41-SG Radiosonde auto_rx v1.5.9
G3HRZU27502052022-12-07 07:13:3753.9332-3.223991454313529Clb=4.2m/s t=-58.7C h=2.7% p=-1.0hPa 405.101 MHz Type=RS41-SG ser=U2750205 Radiosonde
M0DMP-12U27502052022-12-07 07:13:3053.934-3.224941444313491Clb=4.7m/s t=-273.0C h=-1.0% p=-1.0hPa 405.101 MHz Type=RS41-SG Radiosonde auto_rx v1.5.9
G3HRZU27502052022-12-07 07:13:0653.936-3.227381464413397Clb=4.7m/s t=-57.9C h=2.6% p=-1.0hPa 405.101 MHz Type=RS41-SG ser=U2750205 Radiosonde
G4VFL-14U27502052022-12-07 07:13:0253.9363-3.227791484313380Clb=4.7m/s t=-57.8C h=5.9% 405.10MHz Type=RS41-SG batt=2.7V Details on http://radiosondy.info
G4VFL-14U27502052022-12-07 07:12:4553.9378-3.229491464313308Clb=4.6m/s t=-57.5C h=5.9% 405.10MHz Type=RS41-SG Details on http://radiosondy.info
G3HRZU27502052022-12-07 07:12:3553.9387-3.230321543913265Clb=5.2m/s t=-57.5C h=2.6% p=-1.0hPa 405.101 MHz Type=RS41-SG ser=U2750205 Radiosonde
G4VFL-14U27502052022-12-07 07:12:2953.9393-3.23081524113239Clb=3.9m/s t=-57.4C h=5.9% 405.10MHz Type=RS41-SG Details on http://radiosondy.info
G4VFL-14U27502052022-12-07 07:12:1353.9408-3.23191583713170Clb=4.5m/s t=-57.1C h=5.8% 405.10MHz Type=RS41-SG TxPastBurst=8h30m batt=2.7V Details on http://radiosondy.info
G3HRZU27502052022-12-07 07:12:0453.9416-3.232411603513131Clb=4.7m/s t=-57.1C h=2.7% p=-1.0hPa 405.101 MHz Type=RS41-SG ser=U2750205 Radiosonde
M0DMP-12U27502052022-12-07 07:12:0053.9422-3.232771623313102Clb=4.1m/s t=-273.0C h=-1.0% p=-1.0hPa 405.101 MHz Type=RS41-SG Radiosonde auto_rx v1.5.9
G4VFL-14U27502052022-12-07 07:11:5753.9422-3.232771633713102Clb=4.1m/s t=-56.9C h=5.7% 405.10MHz Type=RS41-SG Details on http://radiosondy.info
G4VFL-14U27502052022-12-07 07:11:4153.9436-3.233341744413036Clb=4.3m/s t=-57.0C h=5.9% 405.10MHz Type=RS41-SG Details on http://radiosondy.info
G3HRZU27502052022-12-07 07:11:3353.9445-3.233571664413004Clb=4.0m/s t=-56.8C h=2.9% p=-1.0hPa 405.101 MHz Type=RS41-SG ser=U2750205 Radiosonde
G4VFL-14U27502052022-12-07 07:11:2553.9453-3.233921675012972Clb=3.7m/s t=-56.5C h=5.9% 405.10MHz Type=RS41-SG batt=2.6V Details on http://radiosondy.info
G3HRZU27502052022-12-07 07:11:0253.9479-3.235251614612880Clb=4.4m/s t=-56.9C h=3.2% p=-1.0hPa 405.101 MHz Type=RS41-SG ser=U2750205 Radiosonde
G3HRZU27502052022-12-07 07:10:3153.952-3.237491665712761Clb=3.1m/s t=-57.7C h=3.6% p=-1.0hPa 405.101 MHz Type=RS41-SG ser=U2750205 Radiosonde
G4VFL-14U27502052022-12-07 07:10:1153.9549-3.238951647412694Clb=3.7m/s t=-57.8C h=7.2% 405.10MHz Type=RS41-SG Details on http://radiosondy.info
G3HRZU27502052022-12-07 07:10:0053.957-3.240031627612650Clb=4.3m/s t=-58.0C h=4.1% p=-1.0hPa 405.101 MHz Type=RS41-SG ser=U2750205 Radiosonde
G4VFL-14U27502052022-12-07 07:09:5553.9578-3.240421637412637Clb=3.2m/s t=-58.1C h=7.8% 405.10MHz Type=RS41-SG Details on http://radiosondy.info
G4VFL-14U27502052022-12-07 07:09:3953.9606-3.24191607212582Clb=4.4m/s t=-58.7C h=8.2% 405.10MHz Type=RS41-SG batt=2.7V Details on http://radiosondy.info
G3HRZU27502052022-12-07 07:09:2953.9625-3.243251547012543Clb=3.7m/s t=-59.0C h=5.0% p=-1.0hPa 405.101 MHz Type=RS41-SG ser=U2750205 Radiosonde
G4VFL-14U27502052022-12-07 07:09:2453.9631-3.243791527412528Clb=3.1m/s t=-58.9C h=8.6% 405.10MHz Type=RS41-SG Details on http://radiosondy.info
G4VFL-14U27502052022-12-07 07:09:0853.9657-3.246211517012469Clb=3.4m/s t=-58.6C h=8.7% 405.10MHz Type=RS41-SG Details on http://radiosondy.info
M0DMP-12U27502052022-12-07 07:09:0053.9672-3.247721487012432Clb=3.3m/s t=-273.0C h=-1.0% p=-1.0hPa 405.101 MHz Type=RS41-SG Radiosonde auto_rx v1.5.9
G3HRZU27502052022-12-07 07:08:5853.9673-3.247871487012429Clb=3.0m/s t=-58.7C h=5.3% p=-1.0hPa 405.101 MHz Type=RS41-SG ser=U2750205 Radiosonde
G4VFL-14U27502052022-12-07 07:08:5353.9679-3.248541487012415Clb=3.5m/s t=-58.8C h=9.1% 405.10MHz Type=RS41-SG TxPastBurst=8h30m batt=2.7V Details on http://radiosondy.info
G4VFL-14U27502052022-12-07 07:08:3753.9702-3.251121456512357Clb=4.0m/s t=-59.2C h=9.8% 405.10MHz Type=RS41-SG Details on http://radiosondy.info
M0DMP-12U27502052022-12-07 07:08:3053.9716-3.25261466312321Clb=3.3m/s t=-273.0C h=-1.0% p=-1.0hPa 405.101 MHz Type=RS41-SG Radiosonde auto_rx v1.5.9
G3HRZU27502052022-12-07 07:08:2753.9717-3.252751476312318Clb=2.9m/s t=-59.1C h=6.3% p=-1.0hPa 405.101 MHz Type=RS41-SG ser=U2750205 Radiosonde
G4VFL-14U27502052022-12-07 07:08:2253.9723-3.253271536312303Clb=4.1m/s t=-59.0C h=10.0% 405.10MHz Type=RS41-SG Details on http://radiosondy.info
G3HRZU27502052022-12-07 07:07:5653.9758-3.256341545712203Clb=2.8m/s t=-58.4C h=7.1% p=-1.0hPa 405.101 MHz Type=RS41-SG ser=U2750205 Radiosonde
G3HRZU27502052022-12-07 07:07:2553.9797-3.259381495612090Clb=3.5m/s t=-59.9C h=9.7% p=-1.0hPa 405.101 MHz Type=RS41-SG ser=U2750205 Radiosonde
G4VFL-14U27502052022-12-07 07:07:1253.9812-3.260761515412044Clb=3.3m/s t=-60.0C h=14.6% 405.10MHz Type=RS41-SG batt=2.6V Details on http://radiosondy.info
G4VFL-14U27502052022-12-07 07:06:5653.9831-3.262511555411980Clb=3.1m/s t=-60.0C h=16.3% 405.10MHz Type=RS41-SG Details on http://radiosondy.info
G3HRZU27502052022-12-07 07:06:5453.9834-3.262811545211968Clb=4.9m/s t=-60.0C h=12.0% p=-1.0hPa 405.101 MHz Type=RS41-SG ser=U2750205 Radiosonde
G4VFL-14U27502052022-12-07 07:06:4153.9849-3.263841615411919Clb=3.9m/s t=-60.7C h=18.8% 405.10MHz Type=RS41-SG Details on http://radiosondy.info
G4VFL-14U27502052022-12-07 07:06:2653.9868-3.264921636111858Clb=4.4m/s t=-61.4C h=21.4% 405.10MHz Type=RS41-SG batt=2.6V Details on http://radiosondy.info
G3HRZU27502052022-12-07 07:06:2253.9874-3.265251606311841Clb=4.8m/s t=-61.6C h=16.3% p=-1.0hPa 405.101 MHz Type=RS41-SG ser=U2750205 Radiosonde
G4VFL-14U27502052022-12-07 07:06:0953.9892-3.266631535711787Clb=3.3m/s t=-61.9C h=23.6% 405.10MHz Type=RS41-SG Details on http://radiosondy.info
G4VFL-14U27502052022-12-07 07:05:5453.991-3.268631474611724Clb=4.6m/s t=-61.7C h=23.1% 405.10MHz Type=RS41-SG Details on http://radiosondy.info
G3HRZU27502052022-12-07 07:05:5153.9913-3.268991454811709Clb=6.1m/s t=-61.6C h=17.6% p=-1.0hPa 405.101 MHz Type=RS41-SG ser=U2750205 Radiosonde
G4VFL-14U27502052022-12-07 07:05:3853.9925-3.270391464311652Clb=3.2m/s t=-61.2C h=23.3% 405.10MHz Type=RS41-SG TxPastBurst=8h30m batt=2.6V Details on http://radiosondy.info
G4VFL-14U27502052022-12-07 07:05:2353.9939-3.271751514111589Clb=4.7m/s t=-60.8C h=22.7% 405.10MHz Type=RS41-SG Details on http://radiosondy.info
G3HRZU27502052022-12-07 07:05:2053.9942-3.272011534111577Clb=4.6m/s t=-60.8C h=17.3% p=-1.0hPa 405.101 MHz Type=RS41-SG ser=U2750205 Radiosonde
M0DMP-12U27502052022-12-07 07:05:0053.9961-3.273391613311492Clb=4.7m/s t=-273.0C h=-1.0% p=-1.0hPa 405.101 MHz Type=RS41-SG Radiosonde auto_rx v1.5.9
G3HRZU27502052022-12-07 07:04:4953.9969-3.273911633511454Clb=5.0m/s t=-60.4C h=18.9% p=-1.0hPa 405.101 MHz Type=RS41-SG ser=U2750205 Radiosonde
M0DMP-12U27502052022-12-07 07:04:3054-3.274241834611320Clb=6.1m/s t=-273.0C h=-1.0% p=-1.0hPa 405.101 MHz Type=RS41-SG Radiosonde auto_rx v1.5.9
G3HRZU27502052022-12-07 07:04:1854-3.274241834611320Clb=6.1m/s t=-59.5C h=22.8% p=-1.0hPa 405.101 MHz Type=RS41-SG ser=U2750205 Radiosonde
G4VFL-14U27502052022-12-07 07:04:1254.0007-3.274191824811296Clb=3.6m/s t=-59.3C h=29.7% 405.10MHz Type=RS41-SG Details on http://radiosondy.info
G4VFL-14U27502052022-12-07 07:03:5654.0026-3.27421835911233Clb=3.3m/s t=-60.3C h=35.5% 405.10MHz Type=RS41-SG batt=2.6V Details on http://radiosondy.info
G3HRZU27502052022-12-07 07:03:4754.0039-3.274221755711196Clb=2.5m/s t=-61.2C h=33.9% p=-1.0hPa 405.101 MHz Type=RS41-SG ser=U2750205 Radiosonde
G4VFL-14U27502052022-12-07 07:03:3954.0051-3.274381776311168Clb=3.9m/s t=-61.7C h=43.8% 405.10MHz Type=RS41-SG Details on http://radiosondy.info
M0DMP-12U27502052022-12-07 07:03:3054.0068-3.274581766511131Clb=4.3m/s t=-273.0C h=-1.0% p=-1.0hPa 405.101 MHz Type=RS41-SG Radiosonde auto_rx v1.5.9
G4VFL-14U27502052022-12-07 07:03:2454.0075-3.274651766511118Clb=4.2m/s t=-62.6C h=48.0% 405.10MHz Type=RS41-SG Details on http://radiosondy.info
G3HRZU27502052022-12-07 07:03:1654.0088-3.274911726311088Clb=3.1m/s t=-62.7C h=40.9% p=-1.0hPa 405.101 MHz Type=RS41-SG ser=U2750205 Radiosonde
G4VFL-14U27502052022-12-07 07:03:0954.0099-3.275131746511065Clb=3.9m/s t=-62.5C h=48.6% 405.10MHz Type=RS41-SG batt=2.7V Details on http://radiosondy.info
G4VFL-14U27502052022-12-07 07:02:5354.0125-3.275571756911008Clb=4.1m/s t=-62.4C h=47.5% 405.10MHz Type=RS41-SG Details on http://radiosondy.info
G3HRZU27502052022-12-07 07:02:4554.0138-3.275791756910979Clb=3.8m/s t=-62.4C h=39.4% p=-1.0hPa 405.101 MHz Type=RS41-SG ser=U2750205 Radiosonde
G4VFL-14U27502052022-12-07 07:02:3854.0151-3.275931767210953Clb=3.3m/s t=-62.2C h=47.1% 405.10MHz Type=RS41-SG Details on http://radiosondy.info
G4VFL-14U27502052022-12-07 07:02:2254.0179-3.276221767410894Clb=4.2m/s t=-61.7C h=44.3% 405.10MHz Type=RS41-SG TxPastBurst=8h30m batt=2.7V Details on http://radiosondy.info
G3HRZU27502052022-12-07 07:01:4354.0253-3.277321697010726Clb=4.6m/s t=-60.6C h=29.4% p=-1.0hPa 405.101 MHz Type=RS41-SG ser=U2750205 Radiosonde
M0DMP-12U27502052022-12-07 07:01:3054.0297-3.278411727210622Clb=4.7m/s t=-273.0C h=-1.0% p=-1.0hPa 405.101 MHz Type=RS41 Radiosonde auto_rx v1.5.9
G3HRZU27502052022-12-07 07:01:1254.0306-3.278611727410601Clb=5.1m/s t=-59.6C h=28.6% p=-1.0hPa 405.101 MHz Type=RS41-SG ser=U2750205 Radiosonde
G4VFL-14U27502052022-12-07 07:00:5854.0332-3.279251717010540Clb=2.9m/s t=-59.3C h=34.4% 405.10MHz Type=RS41-SG Details on http://radiosondy.info
G4VFL-14U27502052022-12-07 07:00:4254.036-3.28011716710474Clb=4.5m/s t=-59.1C h=33.7% 405.10MHz Type=RS41-SG Details on http://radiosondy.info
G3HRZU27502052022-12-07 07:00:4154.0362-3.280161697010470Clb=3.7m/s t=-59.1C h=28.0% p=-1.0hPa 405.101 MHz Type=RS41-SG ser=U2750205 Radiosonde
G4VFL-14U27502052022-12-07 07:00:2754.0384-3.28091706310412Clb=3.7m/s t=-58.8C h=34.1% 405.10MHz Type=RS41-SG batt=2.6V Details on http://radiosondy.info
G4VFL-14U27502052022-12-07 07:00:1154.0409-3.281691696710347Clb=4.4m/s t=-58.3C h=32.3% 405.10MHz Type=RS41-SG Details on http://radiosondy.info
G3HRZU27502052022-12-07 07:00:1054.0411-3.281741696510342Clb=3.8m/s t=-58.3C h=26.9% p=-1.0hPa 405.101 MHz Type=RS41-SG ser=U2750205 Radiosonde
G4VFL-14U27502052022-12-07 06:59:5554.0435-3.282571676710284Clb=3.9m/s t=-57.7C h=31.4% 405.10MHz Type=RS41-SG Details on http://radiosondy.info
G4VFL-14U27502052022-12-07 06:59:4054.0459-3.283441676510225Clb=4.4m/s t=-57.3C h=31.3% 405.10MHz Type=RS41-SG batt=2.6V Details on http://radiosondy.info
G3HRZU27502052022-12-07 06:59:3954.0461-3.283511676510221Clb=3.6m/s t=-57.3C h=26.2% p=-1.0hPa 405.101 MHz Type=RS41-SG ser=U2750205 Radiosonde
G4VFL-14U27502052022-12-07 06:59:2454.0485-3.284491656310162Clb=4.1m/s t=-57.1C h=31.4% 405.10MHz Type=RS41-SG Details on http://radiosondy.info
G3HRZU27502052022-12-07 06:59:0854.051-3.285581645910097Clb=3.8m/s t=-56.8C h=25.4% p=-1.0hPa 405.101 MHz Type=RS41-SG ser=U2750205 Radiosonde
G3HRZU27502052022-12-07 06:58:3754.0551-3.28742167549982Clb=4.0m/s t=-55.9C h=23.8% p=-1.0hPa 405.101 MHz Type=RS41-SG ser=U2750205 Radiosonde
G4VFL-14U27502052022-12-07 06:58:1354.0583-3.28877168569893Clb=3.3m/s t=-55.1C h=27.4% 405.10MHz Type=RS41-SG Details on http://radiosondy.info
G3HRZU27502052022-12-07 06:58:0654.0593-3.28912167569868Clb=3.3m/s t=-55.0C h=22.3% p=-1.0hPa 405.101 MHz Type=RS41-SG ser=U2750205 Radiosonde
G4VFL-14U27502052022-12-07 06:57:5854.0604-3.28953166549838Clb=3.5m/s t=-54.7C h=27.1% 405.10MHz Type=RS41-SG TxPastBurst=8h30m batt=2.7V Details on http://radiosondy.info
G4VFL-14U27502052022-12-07 06:57:4354.0624-3.29041167569782Clb=3.3m/s t=-54.3C h=26.2% 405.10MHz Type=RS41-SG Details on http://radiosondy.info
G3HRZU27502052022-12-07 06:57:3554.0636-3.29092166549748Clb=3.0m/s t=-54.1C h=22.1% p=-1.0hPa 405.101 MHz Type=RS41-SG ser=U2750205 Radiosonde
G4VFL-14U27502052022-12-07 06:57:2854.0644-3.29134162549727Clb=4.2m/s t=-53.9C h=26.0% 405.10MHz Type=RS41-SG Details on http://radiosondy.info
G4VFL-14U27502052022-12-07 06:57:1354.0663-3.29234162549671Clb=3.1m/s t=-53.4C h=25.9% 405.10MHz Type=RS41-SG batt=2.7V Details on http://radiosondy.info
G3HRZU27502052022-12-07 06:57:0454.0676-3.29302163529633Clb=4.2m/s t=-53.2C h=21.5% p=-1.0hPa 405.101 MHz Type=RS41-SG ser=U2750205 Radiosonde
G4VFL-14U27502052022-12-07 06:56:5654.0685-3.29344165529607Clb=4.4m/s t=-53.0C h=25.6% 405.10MHz Type=RS41-SG Details on http://radiosondy.info
G4VFL-14U27502052022-12-07 06:56:4054.0705-3.29442166509549Clb=3.0m/s t=-52.6C h=24.8% 405.10MHz Type=RS41-SG Details on http://radiosondy.info
G3HRZU27502052022-12-07 06:56:3354.0715-3.29484166489519Clb=3.4m/s t=-52.3C h=20.0% p=-1.0hPa 405.101 MHz Type=RS41-SG ser=U2750205 Radiosonde
G4VFL-14U27502052022-12-07 06:56:2454.0725-3.29523168509488Clb=3.6m/s t=-52.0C h=23.3% 405.10MHz Type=RS41-SG batt=2.7V Details on http://radiosondy.info
G3HRZU27502052022-12-07 06:56:0154.0751-3.29664162509400Clb=3.1m/s t=-51.3C h=18.1% p=-1.0hPa 405.101 MHz Type=RS41-SG ser=U2750205 Radiosonde
G3HRZU27502052022-12-07 06:55:3054.0789-3.29839166489292Clb=2.7m/s t=-50.3C h=16.1% p=-1.0hPa 405.101 MHz Type=RS41-SG ser=U2750205 Radiosonde
G4VFL-14U27502052022-12-07 06:55:1154.0812-3.29941167509225Clb=2.5m/s t=-49.7C h=19.1% 405.10MHz Type=RS41-SG Details on http://radiosondy.info
G3HRZU27502052022-12-07 06:54:5954.0826-3.30012168489185Clb=3.5m/s t=-49.5C h=14.9% p=-1.0hPa 405.101 MHz Type=RS41-SG ser=U2750205 Radiosonde
G4VFL-14U27502052022-12-07 06:54:5554.0831-3.30028167489172Clb=3.9m/s t=-49.3C h=17.3% 405.10MHz Type=RS41-SG Details on http://radiosondy.info
G4VFL-14U27502052022-12-07 06:54:3954.0849-3.3011167489116Clb=3.2m/s t=-48.8C h=16.0% 405.10MHz Type=RS41-SG TxPastBurst=8h30m batt=2.7V Details on http://radiosondy.info
G3HRZU27502052022-12-07 06:54:2854.0862-3.30166162489078Clb=3.4m/s t=-48.5C h=12.6% p=-1.0hPa 405.101 MHz Type=RS41-SG ser=U2750205 Radiosonde
G4VFL-14U27502052022-12-07 06:54:2454.0867-3.30188166489065Clb=3.9m/s t=-48.4C h=14.8% 405.10MHz Type=RS41-SG Details on http://radiosondy.info
G4VFL-14U27502052022-12-07 06:54:0954.0884-3.30274162469011Clb=3.0m/s t=-48.0C h=14.6% 405.10MHz Type=RS41-SG Details on http://radiosondy.info
G3HRZU27502052022-12-07 06:53:5754.0897-3.30352161468970Clb=3.7m/s t=-47.9C h=13.2% p=-1.0hPa 405.101 MHz Type=RS41-SG ser=U2750205 Radiosonde
G4VFL-14U27502052022-12-07 06:53:5354.0901-3.30378161448956Clb=3.8m/s t=-47.8C h=16.0% 405.10MHz Type=RS41-SG batt=2.6V Details on http://radiosondy.info
G4VFL-14U27502052022-12-07 06:53:3854.0917-3.30469164448906Clb=4.0m/s t=-47.4C h=15.6% 405.10MHz Type=RS41-SG Details on http://radiosondy.info
G3HRZU27502052022-12-07 06:53:2654.093-3.30528166448865Clb=3.8m/s t=-47.1C h=13.0% p=-1.0hPa 405.101 MHz Type=RS41-SG ser=U2750205 Radiosonde
G4VFL-14U27502052022-12-07 06:53:2254.0934-3.30545169448851Clb=2.8m/s t=-47.0C h=15.5% 405.10MHz Type=RS41-SG Details on http://radiosondy.info
G3HRZU27502052022-12-07 06:52:5554.0964-3.30637172468754Clb=4.0m/s t=-46.2C h=11.7% p=-1.0hPa 405.101 MHz Type=RS41-SG ser=U2750205 Radiosonde
G3HRZU27502052022-12-07 06:52:2454.1002-3.30723174508641Clb=3.2m/s t=-45.5C h=11.1% p=-1.0hPa 405.101 MHz Type=RS41-SG ser=U2750205 Radiosonde
G4VFL-14U27502052022-12-07 06:52:1454.1015-3.30745174528606Clb=2.5m/s t=-45.2C h=13.1% 405.10MHz Type=RS41-SG batt=2.6V Details on http://radiosondy.info
G4VFL-14U27502052022-12-07 06:51:5954.1034-3.30752179468551Clb=4.3m/s t=-44.9C h=13.2% 405.10MHz Type=RS41-SG Details on http://radiosondy.info
G3HRZU27502052022-12-07 06:51:5354.1042-3.30758179488532Clb=3.5m/s t=-45.0C h=11.2% p=-1.0hPa 405.101 MHz Type=RS41-SG ser=U2750205 Radiosonde
G4VFL-14U27502052022-12-07 06:51:4354.1053-3.30762178438498Clb=3.2m/s t=-44.7C h=14.1% 405.10MHz Type=RS41-SG Details on http://radiosondy.info
G4VFL-14U27502052022-12-07 06:51:2754.107-3.30789186528436Clb=4.0m/s t=-44.5C h=17.5% 405.10MHz Type=RS41-SG TxPastBurst=8h30m batt=2.7V Details on http://radiosondy.info
G3HRZU27502052022-12-07 06:51:2254.1075-3.30776183528414Clb=5.0m/s t=-44.7C h=18.5% p=-1.0hPa 405.101 MHz Type=RS41-SG ser=U2750205 Radiosonde
G4VFL-14U27502052022-12-07 06:51:1154.1091-3.30788185638366Clb=3.3m/s t=-44.5C h=24.9% 405.10MHz Type=RS41-SG Details on http://radiosondy.info
G4VFL-14U27502052022-12-07 06:50:5454.1117-3.30749187658301Clb=2.9m/s t=-44.2C h=24.3% 405.10MHz Type=RS41-SG Details on http://radiosondy.info
G3HRZU27502052022-12-07 06:50:5154.1122-3.30739188638291Clb=3.6m/s t=-44.2C h=21.5% p=-1.0hPa 405.101 MHz Type=RS41-SG ser=U2750205 Radiosonde
G4VFL-14U27502052022-12-07 06:50:3854.1142-3.30701188658248Clb=3.7m/s t=-43.9C h=24.2% 405.10MHz Type=RS41-SG batt=2.6V Details on http://radiosondy.info
G4VFL-14U27502052022-12-07 06:50:2354.1166-3.30659188578199Clb=2.6m/s t=-43.6C h=25.6% 405.10MHz Type=RS41-SG Details on http://radiosondy.info
G3HRZU27502052022-12-07 06:50:2054.1172-3.30649183578185Clb=2.9m/s t=-43.5C h=23.2% p=-1.0hPa 405.101 MHz Type=RS41-SG ser=U2750205 Radiosonde
G3HRZU27502052022-12-07 06:49:4954.1216-3.30587185548083Clb=2.5m/s t=-42.9C h=35.5% p=-1.0hPa 405.101 MHz Type=RS41-SG ser=U2750205 Radiosonde
G3HRZU27502052022-12-07 06:49:1854.1262-3.30502186617978Clb=3.7m/s t=-42.1C h=30.0% p=-1.0hPa 405.101 MHz Type=RS41-SG ser=U2750205 Radiosonde
G4VFL-14U27502052022-12-07 06:49:1354.1269-3.30491185617965Clb=3.8m/s t=-41.9C h=31.7% 405.10MHz Type=RS41-SG Details on http://radiosondy.info
G4VFL-14U27502052022-12-07 06:48:5654.1294-3.30449187597908Clb=3.4m/s t=-41.4C h=27.5% 405.10MHz Type=RS41-SG batt=2.6V Details on http://radiosondy.info
G3HRZU27502052022-12-07 06:48:4754.1309-3.30424173527874Clb=3.6m/s t=-41.2C h=28.0% p=-1.0hPa 405.101 MHz Type=RS41-SG ser=U2750205 Radiosonde
G4VFL-14U27502052022-12-07 06:48:4154.1316-3.30431184597856Clb=5.7m/s t=-41.0C h=28.8% 405.10MHz Type=RS41-SG Details on http://radiosondy.info
G4VFL-14U27502052022-12-07 06:48:2554.134-3.30377193527764Clb=5.2m/s t=-40.2C h=26.8% 405.10MHz Type=RS41-SG Details on http://radiosondy.info
G3HRZU27502052022-12-07 06:48:1654.1353-3.3034188527715Clb=6.3m/s t=-39.9C h=22.6% p=-1.0hPa 405.101 MHz Type=RS41-SG ser=U2750205 Radiosonde
G4VFL-14U27502052022-12-07 06:48:1054.1359-3.30341171527686Clb=5.2m/s t=-39.5C h=24.1% 405.10MHz Type=RS41-SG TxPastBurst=8h30m batt=2.7V Details on http://radiosondy.info
G4VFL-14U27502052022-12-07 06:47:5454.1379-3.3035189507612Clb=3.6m/s t=-38.9C h=22.4% 405.10MHz Type=RS41-SG Details on http://radiosondy.info
G3HRZU27502052022-12-07 06:47:4554.1391-3.30342170487560Clb=6.2m/s t=-38.4C h=18.9% p=-1.0hPa 405.101 MHz Type=RS41-SG ser=U2750205 Radiosonde
G4VFL-14U27502052022-12-07 06:47:3854.1398-3.30348187487527Clb=4.5m/s t=-38.1C h=19.4% 405.10MHz Type=RS41-SG Details on http://radiosondy.info
G4VFL-14U27502052022-12-07 06:47:2254.1417-3.30358184527458Clb=4.9m/s t=-37.5C h=18.3% 405.10MHz Type=RS41-SG batt=2.7V Details on http://radiosondy.info
G3HRZU27502052022-12-07 06:47:1454.1427-3.30371172547408Clb=6.6m/s t=-37.1C h=15.3% p=-1.0hPa 405.101 MHz Type=RS41-SG ser=U2750205 Radiosonde
G3HRZU27502052022-12-07 06:46:4354.1466-3.30499165507280Clb=3.9m/s t=-36.0C h=14.8% p=-1.0hPa 405.101 MHz Type=RS41-SG ser=U2750205 Radiosonde
G3HRZU27502052022-12-07 06:46:1254.1507-3.30659164567161Clb=4.1m/s t=-35.3C h=14.9% p=-1.0hPa 405.101 MHz Type=RS41-SG ser=U2750205 Radiosonde
G4VFL-14U27502052022-12-07 06:45:5854.1525-3.3074165567110Clb=4.3m/s t=-34.9C h=15.9% 405.10MHz Type=RS41-SG Details on http://radiosondy.info
G4VFL-14U27502052022-12-07 06:45:4254.1546-3.30835165567050Clb=3.4m/s t=-34.7C h=19.4% 405.10MHz Type=RS41-SG Details on http://radiosondy.info
G3HRZU27502052022-12-07 06:45:4154.1549-3.30847166567042Clb=3.1m/s t=-34.7C h=-1.0% p=-1.0hPa 405.101 MHz Type=RS41-SG ser=U2750205 Radiosonde
G4VFL-14U27502052022-12-07 06:45:2654.1568-3.30924171566991Clb=3.5m/s t=-34.3C h=23.8% 405.10MHz Type=RS41-SG batt=2.7V Details on http://radiosondy.info
G4VFL-14U27502052022-12-07 06:45:1054.159-3.30973174576928Clb=3.3m/s t=-33.8C h=24.4% 405.10MHz Type=RS41-SG Details on http://radiosondy.info
G4VFL-14U27502052022-12-07 06:44:5554.1611-3.31014173596869Clb=3.0m/s t=-33.3C h=23.7% 405.10MHz Type=RS41-SG Details on http://radiosondy.info
G4VFL-14U27502052022-12-07 06:44:3954.1635-3.31051174616809Clb=3.7m/s t=-33.0C h=21.3% 405.10MHz Type=RS41-SG TxPastBurst=8h30m batt=2.7V Details on http://radiosondy.info
G4VFL-14U27502052022-12-07 06:44:2354.1659-3.31082174616749Clb=4.2m/s t=-32.5C h=19.9% 405.10MHz Type=RS41-SG Details on http://radiosondy.info
G4VFL-14U27502052022-12-07 06:43:1254.1762-3.31317174506488Clb=2.5m/s t=-31.1C h=20.4% 405.10MHz Type=RS41-SG Details on http://radiosondy.info
G4VFL-14U27502052022-12-07 06:42:5654.1781-3.31339175486433Clb=2.9m/s t=-30.8C h=23.9% 405.10MHz Type=RS41-SG batt=2.7V Details on http://radiosondy.info
G4VFL-14U27502052022-12-07 06:42:4054.18-3.31387166486380Clb=3.7m/s t=-31.4C h=37.6% 405.10MHz Type=RS41-SG Details on http://radiosondy.info
G4VFL-14U27502052022-12-07 06:42:2354.1819-3.3149159466324Clb=2.8m/s t=-31.1C h=39.4% 405.10MHz Type=RS41-SG Details on http://radiosondy.info
G4VFL-14U27502052022-12-07 06:42:0754.1836-3.31623154486273Clb=3.7m/s t=-30.9C h=42.4% 405.10MHz Type=RS41-SG batt=2.7V Details on http://radiosondy.info
G4VFL-14U27502052022-12-07 06:41:5254.1852-3.31763152486226Clb=3.9m/s t=-30.5C h=42.5% 405.10MHz Type=RS41-SG Details on http://radiosondy.info
G4VFL-14U27502052022-12-07 06:41:3654.1869-3.31917151506177Clb=3.4m/s t=-30.1C h=42.2% 405.10MHz Type=RS41-SG Details on http://radiosondy.info
G4VFL-14U27502052022-12-07 06:41:2154.1885-3.32076149486131Clb=3.3m/s t=-29.6C h=40.0% 405.10MHz Type=RS41-SG TxPastBurst=8h30m batt=2.7V Details on http://radiosondy.info
G4VFL-14U27502052022-12-07 06:40:1154.1956-3.32759148445911Clb=2.7m/s t=-27.7C h=43.1% 405.10MHz Type=RS41-SG Details on http://radiosondy.info
G4VFL-14U27502052022-12-07 06:39:5654.197-3.32915144445863Clb=3.4m/s t=-27.4C h=48.8% 405.10MHz Type=RS41-SG Details on http://radiosondy.info
G4VFL-14U27502052022-12-07 06:39:4154.1983-3.33077142445815Clb=4.0m/s t=-27.0C h=45.9% 405.10MHz Type=RS41-SG batt=2.7V Details on http://radiosondy.info
G4VFL-14U27502052022-12-07 06:39:2554.1997-3.33255145435763Clb=3.3m/s t=-26.5C h=49.5% 405.10MHz Type=RS41-SG Details on http://radiosondy.info
G4VFL-14U27502052022-12-07 06:39:1054.201-3.33415145445712Clb=3.2m/s t=-26.2C h=57.1% 405.10MHz Type=RS41-SG Details on http://radiosondy.info
G4VFL-14U27502052022-12-07 06:38:5454.2024-3.33589145415658Clb=3.5m/s t=-25.8C h=60.6% 405.10MHz Type=RS41-SG batt=2.7V Details on http://radiosondy.info
G4VFL-14U27502052022-12-07 06:38:3854.2037-3.33755144415603Clb=4.1m/s t=-25.4C h=63.3% 405.10MHz Type=RS41-SG Details on http://radiosondy.info
G4VFL-14U27502052022-12-07 06:38:2254.205-3.3393142435545Clb=4.4m/s t=-25.0C h=70.3% 405.10MHz Type=RS41-SG Details on http://radiosondy.info
G3HRZU27502052022-12-07 06:37:5554.2086-3.3444142415372Clb=4.0m/s t=-23.6C h=65.7% p=-1.0hPa 405.101 MHz Type=RS41-SG ser=U2750205 Radiosonde
G4VFL-14U27502052022-12-07 06:37:1354.2107-3.34696142435272Clb=4.5m/s t=-22.6C h=64.0% 405.10MHz Type=RS41-SG TxPastBurst=8h30m batt=2.7V Details on http://radiosondy.info
G4VFL-14U27502052022-12-07 06:36:5754.212-3.34874139435205Clb=3.8m/s t=-22.1C h=63.9% 405.10MHz Type=RS41-SG Details on http://radiosondy.info
G3HRZU27502052022-12-07 06:36:5254.213-3.35016138435153Clb=5.4m/s t=-21.8C h=60.8% p=-1.0hPa 405.101 MHz Type=RS41-SG ser=U2750205 Radiosonde
G4VFL-14U27502052022-12-07 06:36:4054.2134-3.35075139445131Clb=2.7m/s t=-21.5C h=62.0% 405.10MHz Type=RS41-SG Details on http://radiosondy.info
G4VFL-14U27502052022-12-07 06:36:2454.2148-3.3527144465063Clb=4.9m/s t=-21.1C h=59.5% 405.10MHz Type=RS41-SG batt=2.7V Details on http://radiosondy.info
G3HRZU27502052022-12-07 06:36:2154.2153-3.35337144445035Clb=4.6m/s t=-21.0C h=58.2% p=-1.0hPa 405.101 MHz Type=RS41-SG ser=U2750205 Radiosonde
G4VFL-14U27502052022-12-07 06:36:0954.2162-3.35438149484994Clb=4.6m/s t=-20.7C h=60.6% 405.10MHz Type=RS41-SG Details on http://radiosondy.info
G4VFL-14U27502052022-12-07 06:35:5454.2178-3.35607148524924Clb=4.9m/s t=-20.4C h=63.4% 405.10MHz Type=RS41-SG Details on http://radiosondy.info
G3HRZU27502052022-12-07 06:35:5054.2183-3.35666149504900Clb=5.1m/s t=-20.4C h=63.3% p=-1.0hPa 405.101 MHz Type=RS41-SG ser=U2750205 Radiosonde
G4VFL-14U27502052022-12-07 06:35:3954.2193-3.35784147464855Clb=4.4m/s t=-20.1C h=65.3% 405.10MHz Type=RS41-SG batt=2.7V Details on http://radiosondy.info
G4VFL-14U27502052022-12-07 06:35:2454.2208-3.35947149414791Clb=3.7m/s t=-19.5C h=60.7% 405.10MHz Type=RS41-SG Details on http://radiosondy.info
G3HRZU27502052022-12-07 06:35:1954.2213-3.36008138354764Clb=6.9m/s t=-19.3C h=57.7% p=-1.0hPa 405.101 MHz Type=RS41-SG ser=U2750205 Radiosonde
G3HRZU27502052022-12-07 06:34:4854.224-3.36334149354592Clb=4.5m/s t=-18.5C h=64.4% p=-1.0hPa 405.101 MHz Type=RS41-SG ser=U2750205 Radiosonde
G4VFL-14U27502052022-12-07 06:34:0154.2272-3.36706147414446Clb=3.3m/s t=-17.8C h=71.5% 405.10MHz Type=RS41-SG Details on http://radiosondy.info
G4VFL-14U27502052022-12-07 06:33:4554.2285-3.36873142414388Clb=3.7m/s t=-17.2C h=70.1% 405.10MHz Type=RS41-SG TxPastBurst=8h30m batt=2.7V Details on http://radiosondy.info
G4VFL-14U27502052022-12-07 06:33:2854.2299-3.37056145414326Clb=4.0m/s t=-16.6C h=67.1% 405.10MHz Type=RS41-SG Details on http://radiosondy.info
G3HRZU27502052022-12-07 06:33:1554.231-3.372139394281Clb=3.6m/s t=-16.2C h=65.0% p=-1.0hPa 405.101 MHz Type=RS41-SG ser=U2750205 Radiosonde
G4VFL-14U27502052022-12-07 06:33:1254.2312-3.37232144414270Clb=3.5m/s t=-16.1C h=65.5% 405.10MHz Type=RS41-SG Details on http://radiosondy.info
G4VFL-14U27502052022-12-07 06:32:5654.2325-3.37406141434212Clb=4.6m/s t=-15.6C h=63.8% 405.10MHz Type=RS41-SG batt=2.7V Details on http://radiosondy.info
G3HRZU27502052022-12-07 06:32:4454.2335-3.37547143434162Clb=4.7m/s t=-15.3C h=62.8% p=-1.0hPa 405.101 MHz Type=RS41-SG ser=U2750205 Radiosonde
G4VFL-14U27502052022-12-07 06:32:4054.2338-3.3759149444146Clb=3.0m/s t=-15.1C h=63.4% 405.10MHz Type=RS41-SG Details on http://radiosondy.info
G4VFL-14U27502052022-12-07 06:32:2454.2352-3.37783147484090Clb=3.7m/s t=-14.7C h=61.3% 405.10MHz Type=RS41-SG Details on http://radiosondy.info
G3HRZU27502052022-12-07 06:32:1354.2363-3.37919143484054Clb=4.0m/s t=-14.5C h=58.8% p=-1.0hPa 405.101 MHz Type=RS41-SG ser=U2750205 Radiosonde
G3HRZU27502052022-12-07 06:31:4254.2393-3.3835131503952Clb=3.4m/s t=-13.7C h=-1.0% p=-1.0hPa 405.101 MHz Type=RS41-SG ser=U2750205 Radiosonde
G4VFL-14U27502052022-12-07 06:31:1254.2421-3.38783138503855Clb=3.8m/s t=-13.1C h=37.2% 405.10MHz Type=RS41-SG batt=2.9V Details on http://radiosondy.info
G3HRZU27502052022-12-07 06:31:1154.2422-3.38797137483851Clb=2.1m/s t=-13.1C h=-1.0% p=-1.0hPa 405.101 MHz Type=RS41 ser=U2750205 Radiosonde
G4VFL-14U27502052022-12-07 06:30:5654.2436-3.39004138463813Clb=2.6m/s t=-13.2C h=38.3% 405.10MHz Type=RS41-SG Details on http://radiosondy.info
G4VFL-14U27502052022-12-07 06:30:4054.2451-3.39173149463753Clb=3.4m/s t=-12.9C h=45.7% 405.10MHz Type=RS41-SG Details on http://radiosondy.info
G4VFL-14U27502052022-12-07 06:30:2554.2466-3.3931155433712Clb=1.7m/s t=-12.8C h=57.0% 405.10MHz Type=RS41-SG TxPastBurst=8h30m batt=2.9V Details on http://radiosondy.info
G4VFL-14U27502052022-12-07 06:30:1054.2481-3.3942160443673Clb=2.5m/s t=-12.6C h=54.7% 405.10MHz Type=RS41-SG Details on http://radiosondy.info
G4VFL-14U27502052022-12-07 06:29:5454.2497-3.39522165463632Clb=3.2m/s t=-12.4C h=52.1% 405.10MHz Type=RS41-SG Details on http://radiosondy.info
G4VFL-14U27502052022-12-07 06:29:3854.2516-3.39614165523591Clb=2.0m/s t=-12.2C h=52.2% 405.10MHz Type=RS41-SG batt=2.7V Details on http://radiosondy.info
G4VFL-14U27502052022-12-07 06:29:2254.2535-3.39712166543547Clb=3.2m/s t=-11.8C h=50.0% 405.10MHz Type=RS41-SG Details on http://radiosondy.info
G4VFL-14U27502052022-12-07 06:28:1154.2621-3.40169166483324Clb=4.4m/s t=-11.0C h=42.1% 405.10MHz Type=RS41-SG Details on http://radiosondy.info
G4VFL-14U27502052022-12-07 06:27:5554.2639-3.40246167433267Clb=4.4m/s t=-10.8C h=43.3% 405.10MHz Type=RS41-SG batt=2.9V Details on http://radiosondy.info
G4VFL-14U27502052022-12-07 06:27:3954.2656-3.4031171443204Clb=4.7m/s t=-10.6C h=43.5% 405.10MHz Type=RS41-SG Details on http://radiosondy.info
G4VFL-14U27502052022-12-07 06:27:2354.2673-3.40362171463139Clb=3.9m/s t=-10.2C h=36.7% 405.10MHz Type=RS41-SG Details on http://radiosondy.info
G4VFL-14U27502052022-12-07 06:27:0854.269-3.40417169463075Clb=3.9m/s t=-9.9C h=37.4% 405.10MHz Type=RS41-SG TxPastBurst=8h30m batt=2.9V Details on http://radiosondy.info
G4VFL-14U27502052022-12-07 06:26:5254.2708-3.40473175443003Clb=5.0m/s t=-9.5C h=35.3% 405.10MHz Type=RS41-SG Details on http://radiosondy.info
G4VFL-14U27502052022-12-07 06:26:3654.2726-3.40508176442932Clb=3.9m/s t=-9.0C h=31.8% 405.10MHz Type=RS41-SG Details on http://radiosondy.info
G4VFL-14U27502052022-12-07 06:26:2154.2743-3.40554166442862Clb=3.7m/s t=-8.7C h=31.8% 405.10MHz Type=RS41-SG batt=2.9V Details on http://radiosondy.info
G4VFL-14U27502052022-12-07 06:25:1354.2809-3.40986150332566Clb=4.4m/s t=-8.5C h=35.0% 405.10MHz Type=RS41-SG Details on http://radiosondy.info
G4VFL-14U27502052022-12-07 06:24:5754.282-3.41106148312514Clb=3.5m/s t=-8.5C 405.10MHz Type=RS41-SG Details on http://radiosondy.info
G4VFL-14U27502052022-12-07 06:24:4154.2831-3.41203162242455Clb=2.7m/s t=-8.7C calibration 94% 405.10MHz Type=RS41-SG batt=2.9V Details on http://radiosondy.info
G4VFL-14U27502052022-12-07 06:24:2554.284-3.41259162222407Clb=2.4m/s t=-8.7C calibration 94% 405.10MHz Type=RS41-SG Details on http://radiosondy.info
G4VFL-14U27502052022-12-07 06:24:0954.2848-3.41296172222359Clb=3.4m/s t=-8.6C calibration 94% 405.10MHz Type=RS41-SG Details on http://radiosondy.info
G4VFL-14U27502052022-12-07 06:23:5354.2857-3.41332143172312Clb=2.5m/s t=-8.4C calibration 94% 405.10MHz Type=RS41-SG TxPastBurst=8h30m batt=2.9V Details on http://radiosondy.info
G4VFL-14U27502052022-12-07 06:23:3754.2863-3.41312179192246Clb=3.3m/s t=-8.0C calibration 94% 405.10MHz Type=RS41-SG Details on http://radiosondy.info
G4VFL-14U27502052022-12-07 06:23:2154.287-3.41313185192197Clb=2.6m/s t=-7.8C calibration 94% 405.10MHz Type=RS41-SG Details on http://radiosondy.info
G4VFL-14U27502052022-12-07 06:22:1354.2914-3.41172187371975Clb=3.6m/s t=-10.5C calibration 94% 405.10MHz Type=RS41-SG batt=2.9V Details on http://radiosondy.info
G4VFL-14U27502052022-12-07 06:21:5854.2928-3.41153183391919Clb=3.5m/s t=-10.5C calibration 94% 405.10MHz Type=RS41-SG Details on http://radiosondy.info
G4VFL-14U27502052022-12-07 06:21:4254.2943-3.4114174371851Clb=4.4m/s t=-9.9C calibration 94% 405.10MHz Type=RS41-SG Details on http://radiosondy.info
G4VFL-14U27502052022-12-07 06:21:2654.2958-3.41163167371789Clb=5.3m/s calibration 94% 405.10MHz Type=RS41-SG batt=2.9V Details on http://radiosondy.info
G4VFL-14U27502052022-12-07 06:21:0954.2973-3.41211168371712Clb=3.2m/s calibration 80% 405.10MHz Type=RS41-SG Details on http://radiosondy.info
G4VFL-14U27502052022-12-07 06:20:5354.2988-3.41258170351652Clb=4.1m/s calibration 74% 405.10MHz Type=RS41-SG Details on http://radiosondy.info
G4VFL-14U27502052022-12-07 06:20:3754.3002-3.41303167351596Clb=3.6m/s calibration 74% 405.10MHz Type=RS41-SG batt=2.9V Details on http://radiosondy.info
G4VFL-14U27502052022-12-07 06:20:2154.3016-3.41357167351531Clb=4.6m/s calibration 74% 405.10MHz Type=RS41-SG Details on http://radiosondy.info
G4VFL-14U27502052022-12-07 06:19:1354.3069-3.41584159311240Clb=5.2m/s calibration 74% 405.10MHz Type=RS41-SG Details on http://radiosondy.info
G4VFL-14U27502052022-12-07 06:18:5754.3081-3.41619186281165Clb=4.2m/s calibration 74% 405.10MHz Type=RS41-SG batt=2.9V Details on http://radiosondy.info
G4VFL-14U27502052022-12-07 06:18:4154.3092-3.41569180261095Clb=4.9m/s calibration 72% 405.10MHz Type=RS41-SG Details on http://radiosondy.info
G4VFL-14U27502052022-12-07 06:18:2554.3102-3.41556168301022Clb=4.4m/s calibration 64% 405.10MHz Type=RS41 Details on http://radiosondy.info
G4VFL-14U27502052022-12-07 06:18:0954.3115-3.415520833942Clb=6.5m/s calibration 49% 405.10MHz Type=RS41 batt=2.7V Details on http://radiosondy.info
G4VFL-14U27502052022-12-07 06:17:5254.3128-3.4149719131847Clb=6.9m/s calibration 35% Type=RS41 Details on http://radiosondy.info
G4VFL-14U27502052022-12-07 06:17:3754.3139-3.4143818733779Clb=5.1m/s calibration 23% Type=RS41 Details on http://radiosondy.info
G4VFL-14U27502052022-12-07 06:17:2154.3151-3.4139421233693Clb=4.8m/s calibration 7% Type=RS41 batt=2.7V Details on http://radiosondy.info